Time,TemperatureF,DewpointF,PressureIn,WindDirection,WindDirectionDegrees,WindSpeedMPH,WindSpeedGustMPH,Humidity,HourlyPrecipIn,Conditions,Clouds,dailyrainin,SoftwareType,DateUTC
2013-01-07 00:00:00,32.5,27.3,29.84,South,189,1.0,1.0,81,0.00,,,0.04,Wunderground v.1.15,2013-01-07 05:00:00,
2013-01-07 00:02:00,32.6,27.4,29.84,South,189,1.0,5.0,81,0.00,,,0.04,Wunderground v.1.15,2013-01-07 05:02:00,
2013-01-07 00:04:00,32.6,27.4,29.84,South,189,1.0,5.0,81,0.00,,,0.04,Wunderground v.1.15,2013-01-07 05:04:00,
2013-01-07 00:08:00,32.6,27.1,29.84,South,189,1.0,5.0,80,0.00,,,0.04,Wunderground v.1.15,2013-01-07 05:08:00,
2013-01-07 00:09:00,32.6,27.1,29.84,South,189,1.0,5.0,80,0.00,,,0.04,Wunderground v.1.15,2013-01-07 05:09:00,
2013-01-07 00:11:00,32.4,26.9,29.84,South,189,0.0,5.0,80,0.00,,,0.04,Wunderground v.1.15,2013-01-07 05:11:00,
2013-01-07 00:12:00,32.3,26.8,29.85,South,189,0.0,5.0,80,0.00,,,0.04,Wunderground v.1.15,2013-01-07 05:12:00,
2013-01-07 00:14:00,32.1,26.6,29.85,WSW,248,1.0,5.0,80,0.00,,,0.04,Wunderground v.1.15,2013-01-07 05:14:00,
2013-01-07 00:17:00,31.8,26.6,29.85,West,268,1.0,5.0,81,0.00,,,0.04,Wunderground v.1.15,2013-01-07 05:17:00,
2013-01-07 00:18:00,31.6,26.4,29.85,West,259,1.0,5.0,81,0.00,,,0.04,Wunderground v.1.15,2013-01-07 05:18:00,
2013-01-07 00:21:00,31.6,26.7,29.85,SSW,209,2.0,5.0,82,0.00,,,0.04,Wunderground v.1.15,2013-01-07 05:21:00,
2013-01-07 00:22:00,31.7,26.8,29.85,SSW,200,2.0,5.0,82,0.00,,,0.04,Wunderground v.1.15,2013-01-07 05:22:00,
2013-01-07 00:23:00,31.7,26.8,29.85,WSW,253,2.0,5.0,82,0.00,,,0.04,Wunderground v.1.15,2013-01-07 05:23:00,
2013-01-07 00:28:00,31.8,26.9,29.85,SW,224,2.0,5.0,82,0.00,,,0.04,Wunderground v.1.15,2013-01-07 05:28:00,
2013-01-07 00:30:00,31.9,27.0,29.85,SSW,211,3.0,3.0,82,0.00,,,0.04,Wunderground v.1.15,2013-01-07 05:30:00,
2013-01-07 00:32:00,31.8,26.9,29.85,WSW,244,3.0,5.0,82,0.00,,,0.04,Wunderground v.1.15,2013-01-07 05:32:00,
2013-01-07 00:33:00,31.8,26.9,29.85,SSW,199,3.0,6.0,82,0.00,,,0.04,Wunderground v.1.15,2013-01-07 05:33:00,
2013-01-07 00:37:00,32.0,26.8,29.85,SW,222,4.0,6.0,81,0.00,,,0.04,Wunderground v.1.15,2013-01-07 05:37:00,
2013-01-07 00:38:00,32.0,26.8,29.85,WSW,246,4.0,6.0,81,0.00,,,0.04,Wunderground v.1.15,2013-01-07 05:38:00,
2013-01-07 00:40:00,32.0,26.8,29.85,WSW,241,4.0,5.0,81,0.00,,,0.04,Wunderground v.1.15,2013-01-07 05:40:00,
2013-01-07 00:42:00,32.0,26.8,29.85,WSW,250,4.0,5.0,81,0.00,,,0.04,Wunderground v.1.15,2013-01-07 05:42:00,
2013-01-07 00:43:00,32.1,26.9,29.85,WSW,243,4.0,5.0,81,0.00,,,0.04,Wunderground v.1.15,2013-01-07 05:43:00,
2013-01-07 00:45:00,32.1,26.9,29.85,WSW,247,4.0,5.0,81,0.00,,,0.04,Wunderground v.1.15,2013-01-07 05:45:00,
2013-01-07 00:49:00,32.2,27.0,29.85,WSW,257,4.0,5.0,81,0.00,,,0.04,Wunderground v.1.15,2013-01-07 05:49:00,
2013-01-07 00:50:00,32.1,26.9,29.85,WSW,257,4.0,4.0,81,0.00,,,0.04,Wunderground v.1.15,2013-01-07 05:50:00,
2013-01-07 00:52:00,31.9,26.7,29.85,West,261,4.0,5.0,81,0.00,,,0.04,Wunderground v.1.15,2013-01-07 05:52:00,
2013-01-07 00:54:00,31.7,26.5,29.86,West,281,3.0,5.0,81,0.00,,,0.04,Wunderground v.1.15,2013-01-07 05:54:00,
2013-01-07 00:56:00,31.6,26.7,29.86,West,263,2.0,5.0,82,0.00,,,0.04,Wunderground v.1.15,2013-01-07 05:56:00,
2013-01-07 00:58:00,31.6,26.7,29.86,WSW,258,2.0,5.0,82,0.00,,,0.04,Wunderground v.1.15,2013-01-07 05:58:00,
2013-01-07 01:02:00,31.5,26.6,29.86,WSW,254,1.0,7.0,82,0.00,,,0.04,Wunderground v.1.15,2013-01-07 06:02:00,
2013-01-07 01:03:00,31.5,26.6,29.86,WSW,240,1.0,7.0,82,0.00,,,0.04,Wunderground v.1.15,2013-01-07 06:03:00,
2013-01-07 01:05:00,31.6,26.7,29.86,WSW,240,1.0,7.0,82,0.00,,,0.04,Wunderground v.1.15,2013-01-07 06:05:00,
2013-01-07 01:06:00,31.6,26.7,29.86,WSW,240,1.0,7.0,82,0.00,,,0.04,Wunderground v.1.15,2013-01-07 06:06:00,
2013-01-07 01:07:00,31.7,26.8,29.86,WSW,240,1.0,7.0,82,0.00,,,0.04,Wunderground v.1.15,2013-01-07 06:07:00,
2013-01-07 01:09:00,31.6,26.7,29.86,WSW,241,1.0,7.0,82,0.00,,,0.04,Wunderground v.1.15,2013-01-07 06:09:00,
2013-01-07 01:11:00,31.6,26.7,29.86,WSW,240,1.0,7.0,82,0.00,,,0.04,Wunderground v.1.15,2013-01-07 06:11:00,
2013-01-07 01:13:00,31.6,26.7,29.87,WSW,253,2.0,7.0,82,0.00,,,0.04,Wunderground v.1.15,2013-01-07 06:13:00,
2013-01-07 01:16:00,31.5,26.6,29.86,WSW,247,2.0,7.0,82,0.00,,,0.04,Wunderground v.1.15,2013-01-07 06:16:00,
2013-01-07 01:17:00,31.5,26.6,29.87,West,261,2.0,7.0,82,0.00,,,0.04,Wunderground v.1.15,2013-01-07 06:17:00,
2013-01-07 01:19:00,31.4,26.5,29.87,West,259,2.0,7.0,82,0.00,,,0.04,Wunderground v.1.15,2013-01-07 06:19:00,
2013-01-07 01:21:00,31.4,26.8,29.87,WSW,254,1.0,7.0,83,0.00,,,0.04,Wunderground v.1.15,2013-01-07 06:21:00,
2013-01-07 01:22:00,31.4,26.8,29.87,WSW,254,1.0,7.0,83,0.00,,,0.04,Wunderground v.1.15,2013-01-07 06:22:00,
2013-01-07 01:24:00,31.2,26.0,29.87,WSW,254,1.0,7.0,81,0.00,,,0.04,Wunderground v.1.15,2013-01-07 06:24:00,
2013-01-07 01:27:00,29.4,24.6,29.87,WSW,254,0.0,7.0,82,0.00,,,0.04,Wunderground v.1.15,2013-01-07 06:27:00,
2013-01-07 01:31:00,28.1,24.2,29.87,WSW,254,0.0,7.0,85,0.00,,,0.04,Wunderground v.1.15,2013-01-07 06:31:00,
2013-01-07 01:32:00,27.8,24.2,29.87,WSW,254,0.0,7.0,86,0.00,,,0.04,Wunderground v.1.15,2013-01-07 06:32:00,
2013-01-07 01:34:00,27.7,24.3,29.87,SSW,196,1.0,7.0,87,0.00,,,0.00,Wunderground v.1.15,2013-01-07 06:34:00,
2013-01-07 01:35:00,27.8,24.7,29.87,SSW,196,1.0,7.0,88,0.00,,,0.00,Wunderground v.1.15,2013-01-07 06:35:00,
2013-01-07 01:39:00,28.7,25.9,29.88,SSW,194,2.0,7.0,89,0.00,,,0.00,Wunderground v.1.15,2013-01-07 06:39:00,
2013-01-07 01:42:00,29.1,26.3,29.88,SSW,194,2.0,7.0,89,0.00,,,0.00,Wunderground v.1.15,2013-01-07 06:42:00,
2013-01-07 01:43:00,29.2,26.1,29.88,SSW,194,2.0,7.0,88,0.00,,,0.00,Wunderground v.1.15,2013-01-07 06:43:00,
2013-01-07 01:44:00,29.4,26.6,29.88,SSW,199,1.0,7.0,89,0.00,,,0.00,Wunderground v.1.15,2013-01-07 06:44:00,
2013-01-07 01:45:00,29.5,26.4,29.88,SW,229,1.0,7.0,88,0.00,,,0.00,Wunderground v.1.15,2013-01-07 06:45:00,
2013-01-07 01:49:00,30.1,27.0,29.88,WSW,241,1.0,7.0,88,0.00,,,0.00,Wunderground v.1.15,2013-01-07 06:49:00,
2013-01-07 01:50:00,30.2,27.1,29.88,WSW,241,1.0,7.0,88,0.00,,,0.00,Wunderground v.1.15,2013-01-07 06:50:00,
2013-01-07 01:52:00,30.7,27.3,29.88,SW,215,1.0,7.0,87,0.00,,,0.00,Wunderground v.1.15,2013-01-07 06:52:00,
2013-01-07 01:53:00,30.8,27.4,29.88,SW,214,2.0,7.0,87,0.00,,,0.00,Wunderground v.1.15,2013-01-07 06:53:00,
2013-01-07 01:55:00,31.2,27.8,29.88,SSW,192,2.0,7.0,87,0.00,,,0.00,Wunderground v.1.15,2013-01-07 06:55:00,
2013-01-07 01:57:00,31.9,28.5,29.88,SSW,192,2.0,7.0,87,0.00,,,0.00,Wunderground v.1.15,2013-01-07 06:57:00,
2013-01-07 02:00:00,32.1,27.5,29.88,SE,133,2.0,2.0,83,0.00,,,0.00,Wunderground v.1.15,2013-01-07 07:00:00,
2013-01-07 02:02:00,31.4,26.8,29.88,SSE,159,1.0,4.0,83,0.00,,,0.00,Wunderground v.1.15,2013-01-07 07:02:00,
2013-01-07 02:03:00,31.3,26.7,29.88,SSE,159,1.0,4.0,83,0.00,,,0.00,Wunderground v.1.15,2013-01-07 07:03:00,
2013-01-07 02:04:00,31.2,26.6,29.88,SSE,165,1.0,4.0,83,0.00,,,0.00,Wunderground v.1.15,2013-01-07 07:04:00,
2013-01-07 02:07:00,30.6,26.1,29.88,WSW,241,0.0,4.0,83,0.00,,,0.00,Wunderground v.1.15,2013-01-07 07:07:00,
2013-01-07 02:08:00,30.5,26.2,29.88,WSW,241,0.0,4.0,84,0.00,,,0.00,Wunderground v.1.15,2013-01-07 07:08:00,
2013-01-07 02:10:00,30.4,26.1,29.88,WSW,252,1.0,4.0,84,0.00,,,0.00,Wunderground v.1.15,2013-01-07 07:10:00,
2013-01-07 02:12:00,30.4,26.4,29.89,WSW,253,2.0,5.0,85,0.00,,,0.00,Wunderground v.1.15,2013-01-07 07:12:00,
2013-01-07 02:14:00,30.5,26.5,29.89,WSW,253,2.0,5.0,85,0.00,,,0.00,Wunderground v.1.15,2013-01-07 07:14:00,
2013-01-07 02:15:00,30.6,26.6,29.88,WSW,253,2.0,5.0,85,0.00,,,0.00,Wunderground v.1.15,2013-01-07 07:15:00,
2013-01-07 02:17:00,30.8,26.8,29.88,WSW,253,2.0,5.0,85,0.00,,,0.00,Wunderground v.1.15,2013-01-07 07:17:00,
2013-01-07 02:19:00,30.7,26.7,29.88,WSW,253,1.0,5.0,85,0.00,,,0.00,Wunderground v.1.15,2013-01-07 07:19:00,
2013-01-07 02:20:00,30.5,26.2,29.89,NNW,332,1.0,1.0,84,0.00,,,0.00,Wunderground v.1.15,2013-01-07 07:20:00,
2013-01-07 02:23:00,29.4,25.2,29.89,NNW,332,0.0,4.0,84,0.00,,,0.00,Wunderground v.1.15,2013-01-07 07:23:00,
2013-01-07 02:26:00,28.6,24.7,29.89,NNW,332,0.0,4.0,85,0.00,,,0.00,Wunderground v.1.15,2013-01-07 07:26:00,
2013-01-07 02:27:00,28.3,24.6,29.89,NNW,332,0.0,4.0,86,0.00,,,0.00,Wunderground v.1.15,2013-01-07 07:27:00,
2013-01-07 02:29:00,28.0,24.6,29.89,NNW,332,0.0,4.0,87,0.00,,,0.00,Wunderground v.1.15,2013-01-07 07:29:00,
2013-01-07 02:31:00,27.9,24.8,29.89,NNW,332,0.0,4.0,88,0.00,,,0.00,Wunderground v.1.15,2013-01-07 07:31:00,
2013-01-07 02:35:00,28.2,25.4,29.89,NNW,332,0.0,4.0,89,0.00,,,0.00,Wunderground v.1.15,2013-01-07 07:35:00,
2013-01-07 02:36:00,28.3,25.5,29.89,NNW,332,0.0,4.0,89,0.00,,,0.00,Wunderground v.1.15,2013-01-07 07:36:00,
2013-01-07 02:37:00,28.4,25.6,29.89,NNW,332,0.0,4.0,89,0.00,,,0.00,Wunderground v.1.15,2013-01-07 07:37:00,
2013-01-07 02:38:00,28.4,25.6,29.89,ESE,105,0.0,4.0,89,0.00,,,0.00,Wunderground v.1.15,2013-01-07 07:38:00,
2013-01-07 02:43:00,28.1,25.3,29.89,ESE,112,1.0,4.0,89,0.00,,,0.00,Wunderground v.1.15,2013-01-07 07:43:00,
2013-01-07 02:45:00,27.9,25.1,29.89,SE,139,1.0,4.0,89,0.00,,,0.00,Wunderground v.1.15,2013-01-07 07:45:00,
2013-01-07 02:46:00,28.0,25.2,29.89,SSE,154,1.0,5.0,89,0.00,,,0.00,Wunderground v.1.15,2013-01-07 07:46:00,
2013-01-07 02:49:00,28.4,25.8,29.89,SSE,167,2.0,5.0,90,0.00,,,0.00,Wunderground v.1.15,2013-01-07 07:49:00,
2013-01-07 02:50:00,28.6,26.0,29.89,South,179,2.0,5.0,90,0.00,,,0.00,Wunderground v.1.15,2013-01-07 07:50:00,
2013-01-07 02:51:00,28.8,26.2,29.90,South,179,3.0,5.0,90,0.00,,,0.00,Wunderground v.1.15,2013-01-07 07:51:00,
2013-01-07 02:52:00,28.9,26.3,29.89,South,179,3.0,5.0,90,0.00,,,0.00,Wunderground v.1.15,2013-01-07 07:52:00,
2013-01-07 02:57:00,29.6,26.8,29.89,South,182,5.0,7.0,89,0.00,,,0.00,Wunderground v.1.15,2013-01-07 07:57:00,
2013-01-07 02:58:00,29.7,26.9,29.89,South,187,5.0,7.0,89,0.00,,,0.00,Wunderground v.1.15,2013-01-07 07:58:00,
2013-01-07 02:59:00,29.9,27.1,29.89,South,184,6.0,7.0,89,0.00,,,0.00,Wunderground v.1.15,2013-01-07 07:59:00,
2013-01-07 03:03:00,30.6,27.7,29.89,South,171,6.0,8.0,89,0.00,,,0.00,Wunderground v.1.15,2013-01-07 08:03:00,
2013-01-07 03:04:00,30.8,27.9,29.89,SSW,192,7.0,8.0,89,0.00,,,0.00,Wunderground v.1.15,2013-01-07 08:04:00,
2013-01-07 03:05:00,31.0,28.1,29.89,South,191,7.0,8.0,89,0.00,,,0.00,Wunderground v.1.15,2013-01-07 08:05:00,
2013-01-07 03:06:00,31.2,28.1,29.89,SSW,204,6.0,8.0,88,0.00,,,0.00,Wunderground v.1.15,2013-01-07 08:06:00,
2013-01-07 03:09:00,31.6,28.2,29.89,South,189,6.0,8.0,87,0.00,,,0.00,Wunderground v.1.15,2013-01-07 08:09:00,
2013-01-07 03:10:00,31.7,28.3,29.89,SSW,209,6.0,6.0,87,0.00,,,0.00,Wunderground v.1.15,2013-01-07 08:10:00,
2013-01-07 03:12:00,31.9,28.2,29.89,South,173,6.0,6.0,86,0.00,,,0.00,Wunderground v.1.15,2013-01-07 08:12:00,
2013-01-07 03:17:00,32.5,28.5,29.90,South,184,5.0,6.0,85,0.00,,,0.00,Wunderground v.1.15,2013-01-07 08:17:00,
2013-01-07 03:18:00,32.6,28.6,29.90,SSE,166,4.0,6.0,85,0.00,,,0.00,Wunderground v.1.15,2013-01-07 08:18:00,
2013-01-07 03:19:00,32.7,28.7,29.90,SSE,166,4.0,6.0,85,0.00,,,0.00,Wunderground v.1.15,2013-01-07 08:19:00,
2013-01-07 03:24:00,32.3,27.4,29.90,ESE,114,3.0,6.0,82,0.00,,,0.00,Wunderground v.1.15,2013-01-07 08:24:00,
2013-01-07 03:25:00,31.9,27.0,29.90,ESE,114,3.0,6.0,82,0.00,,,0.00,Wunderground v.1.15,2013-01-07 08:25:00,
2013-01-07 03:29:00,31.0,26.4,29.90,ESE,114,1.0,6.0,83,0.00,,,0.00,Wunderground v.1.15,2013-01-07 08:29:00,
2013-01-07 03:30:00,30.8,26.5,29.90,ESE,115,1.0,1.0,84,0.00,,,0.00,Wunderground v.1.15,2013-01-07 08:30:00,
2013-01-07 03:31:00,30.7,26.4,29.90,ESE,115,0.0,6.0,84,0.00,,,0.00,Wunderground v.1.15,2013-01-07 08:31:00,
2013-01-07 03:35:00,30.5,26.5,29.90,SSE,162,0.0,6.0,85,0.00,,,0.00,Wunderground v.1.15,2013-01-07 08:35:00,
2013-01-07 03:36:00,30.5,26.5,29.90,SSE,165,0.0,6.0,85,0.00,,,0.00,Wunderground v.1.15,2013-01-07 08:36:00,
2013-01-07 03:37:00,30.6,26.6,29.90,SSE,165,0.0,6.0,85,0.00,,,0.00,Wunderground v.1.15,2013-01-07 08:37:00,
2013-01-07 03:41:00,30.7,27.0,29.90,SSE,165,0.0,6.0,86,0.00,,,0.00,Wunderground v.1.15,2013-01-07 08:41:00,
2013-01-07 03:42:00,30.8,27.4,29.90,SSE,165,0.0,6.0,87,0.00,,,0.00,Wunderground v.1.15,2013-01-07 08:42:00,
2013-01-07 03:45:00,31.3,27.6,29.90,SSE,165,0.0,6.0,86,0.00,,,0.00,Wunderground v.1.15,2013-01-07 08:45:00,
2013-01-07 03:47:00,31.5,27.8,29.90,SSE,165,0.0,6.0,86,0.00,,,0.00,Wunderground v.1.15,2013-01-07 08:47:00,
2013-01-07 03:49:00,31.9,28.2,29.90,SSE,165,0.0,6.0,86,0.00,,,0.00,Wunderground v.1.15,2013-01-07 08:49:00,
2013-01-07 03:52:00,32.4,28.7,29.90,SW,236,1.0,6.0,86,0.00,,,0.00,Wunderground v.1.15,2013-01-07 08:52:00,
2013-01-07 03:55:00,32.7,28.7,29.90,SW,236,2.0,6.0,85,0.00,,,0.00,Wunderground v.1.15,2013-01-07 08:55:00,
2013-01-07 03:56:00,32.8,28.8,29.90,SW,236,2.0,6.0,85,0.00,,,0.00,Wunderground v.1.15,2013-01-07 08:56:00,
2013-01-07 03:57:00,33.0,29.0,29.90,SW,236,2.0,6.0,85,0.00,,,0.00,Wunderground v.1.15,2013-01-07 08:57:00,
2013-01-07 04:02:00,33.6,29.3,29.90,WSW,238,2.0,5.0,84,0.00,,,0.00,Wunderground v.1.15,2013-01-07 09:02:00,
2013-01-07 04:03:00,33.7,29.4,29.90,SW,231,2.0,5.0,84,0.00,,,0.00,Wunderground v.1.15,2013-01-07 09:03:00,
2013-01-07 04:05:00,33.9,29.3,29.90,SW,214,2.0,5.0,83,0.00,,,0.00,Wunderground v.1.15,2013-01-07 09:05:00,
2013-01-07 04:08:00,34.3,29.4,29.90,SW,214,2.0,5.0,82,0.00,,,0.00,Wunderground v.1.15,2013-01-07 09:08:00,
2013-01-07 04:09:00,34.3,29.4,29.90,SW,214,1.0,5.0,82,0.00,,,0.00,Wunderground v.1.15,2013-01-07 09:09:00,
2013-01-07 04:13:00,33.7,27.9,29.91,SW,214,1.0,5.0,79,0.00,,,0.00,Wunderground v.1.15,2013-01-07 09:13:00,
2013-01-07 04:17:00,31.4,25.9,29.91,SW,219,0.0,5.0,80,0.00,,,0.00,Wunderground v.1.15,2013-01-07 09:17:00,
2013-01-07 04:20:00,30.3,25.5,29.92,SW,220,0.0,5.0,82,0.00,,,0.00,Wunderground v.1.15,2013-01-07 09:20:00,
2013-01-07 04:21:00,30.1,25.6,29.92,SW,220,0.0,5.0,83,0.00,,,0.00,Wunderground v.1.15,2013-01-07 09:21:00,
2013-01-07 04:22:00,29.7,25.2,29.92,SW,220,0.0,5.0,83,0.00,,,0.00,Wunderground v.1.15,2013-01-07 09:22:00,
2013-01-07 04:25:00,29.1,25.2,29.92,SW,220,0.0,5.0,85,0.00,,,0.00,Wunderground v.1.15,2013-01-07 09:25:00,
2013-01-07 04:28:00,28.6,24.7,29.92,SW,220,0.0,5.0,85,0.00,,,0.00,Wunderground v.1.15,2013-01-07 09:28:00,
2013-01-07 04:29:00,28.5,24.8,29.92,SW,220,0.0,5.0,86,0.00,,,0.00,Wunderground v.1.15,2013-01-07 09:29:00,
2013-01-07 04:34:00,30.0,27.2,29.92,SW,226,1.0,5.0,89,0.00,,,0.00,Wunderground v.1.15,2013-01-07 09:34:00,
2013-01-07 04:37:00,31.0,28.1,29.92,SW,227,1.0,5.0,89,0.00,,,0.00,Wunderground v.1.15,2013-01-07 09:37:00,
2013-01-07 04:42:00,31.9,28.8,29.92,SW,217,2.0,5.0,88,0.00,,,0.00,Wunderground v.1.15,2013-01-07 09:42:00,
2013-01-07 04:43:00,32.1,28.7,29.92,SW,217,2.0,5.0,87,0.00,,,0.00,Wunderground v.1.15,2013-01-07 09:43:00,
2013-01-07 04:48:00,32.5,28.8,29.92,SW,217,2.0,5.0,86,0.00,,,0.00,Wunderground v.1.15,2013-01-07 09:48:00,
2013-01-07 04:49:00,32.6,28.9,29.92,SW,217,2.0,5.0,86,0.00,,,0.00,Wunderground v.1.15,2013-01-07 09:49:00,
2013-01-07 04:50:00,32.7,29.0,29.92,SW,217,1.0,5.0,86,0.00,,,0.00,Wunderground v.1.15,2013-01-07 09:50:00,
2013-01-07 04:53:00,32.9,28.9,29.92,SW,218,1.0,5.0,85,0.00,,,0.00,Wunderground v.1.15,2013-01-07 09:53:00,
2013-01-07 04:56:00,33.0,28.7,29.92,WSW,247,1.0,5.0,84,0.00,,,0.00,Wunderground v.1.15,2013-01-07 09:56:00,
2013-01-07 04:58:00,32.9,28.6,29.92,WSW,248,1.0,5.0,84,0.00,,,0.00,Wunderground v.1.15,2013-01-07 09:58:00,
2013-01-07 05:02:00,32.8,28.5,29.92,WSW,250,2.0,6.0,84,0.00,,,0.00,Wunderground v.1.15,2013-01-07 10:02:00,
2013-01-07 05:03:00,32.9,28.6,29.92,WSW,250,1.0,6.0,84,0.00,,,0.00,Wunderground v.1.15,2013-01-07 10:03:00,
2013-01-07 05:07:00,32.9,28.6,29.92,WSW,250,1.0,6.0,84,0.00,,,0.00,Wunderground v.1.15,2013-01-07 10:07:00,
2013-01-07 05:10:00,33.0,28.7,29.92,WNW,297,1.0,6.0,84,0.00,,,0.00,Wunderground v.1.15,2013-01-07 10:10:00,
2013-01-07 05:13:00,33.3,29.0,29.93,WNW,297,1.0,6.0,84,0.00,,,0.00,Wunderground v.1.15,2013-01-07 10:13:00,
2013-01-07 05:15:00,33.4,29.1,29.93,WNW,297,1.0,6.0,84,0.00,,,0.00,Wunderground v.1.15,2013-01-07 10:15:00,
2013-01-07 05:16:00,33.4,29.1,29.93,WNW,297,1.0,6.0,84,0.00,,,0.00,Wunderground v.1.15,2013-01-07 10:16:00,
2013-01-07 05:18:00,33.4,28.8,29.93,WNW,297,1.0,6.0,83,0.00,,,0.00,Wunderground v.1.15,2013-01-07 10:18:00,
2013-01-07 05:21:00,33.6,29.3,29.93,WNW,297,0.0,6.0,84,0.00,,,0.00,Wunderground v.1.15,2013-01-07 10:21:00,
2013-01-07 05:22:00,33.7,29.4,29.94,WNW,297,0.0,6.0,84,0.00,,,0.00,Wunderground v.1.15,2013-01-07 10:22:00,
2013-01-07 05:24:00,33.9,29.3,29.94,WNW,297,0.0,6.0,83,0.00,,,0.00,Wunderground v.1.15,2013-01-07 10:24:00,
2013-01-07 05:27:00,33.9,29.3,29.94,WNW,297,1.0,6.0,83,0.00,,,0.00,Wunderground v.1.15,2013-01-07 10:27:00,
2013-01-07 05:28:00,33.9,29.3,29.94,WNW,297,1.0,6.0,83,0.00,,,0.00,Wunderground v.1.15,2013-01-07 10:28:00,
2013-01-07 05:29:00,34.0,29.4,29.94,WNW,297,1.0,6.0,83,0.00,,,0.00,Wunderground v.1.15,2013-01-07 10:29:00,
2013-01-07 05:32:00,34.2,29.6,29.94,WNW,296,1.0,6.0,83,0.00,,,0.00,Wunderground v.1.15,2013-01-07 10:32:00,
2013-01-07 05:33:00,34.3,29.7,29.94,WNW,296,1.0,6.0,83,0.00,,,0.00,Wunderground v.1.15,2013-01-07 10:33:00,
2013-01-07 05:36:00,34.3,29.4,29.94,WNW,296,1.0,6.0,82,0.00,,,0.00,Wunderground v.1.15,2013-01-07 10:36:00,
2013-01-07 05:37:00,34.3,29.4,29.94,WNW,289,1.0,6.0,82,0.00,,,0.00,Wunderground v.1.15,2013-01-07 10:37:00,
2013-01-07 05:38:00,34.3,29.4,29.94,WNW,289,1.0,6.0,82,0.00,,,0.00,Wunderground v.1.15,2013-01-07 10:38:00,
2013-01-07 05:40:00,34.4,29.5,29.95,West,271,1.0,1.0,82,0.00,,,0.00,Wunderground v.1.15,2013-01-07 10:40:00,
2013-01-07 05:43:00,34.5,29.6,29.95,WNW,284,1.0,6.0,82,0.00,,,0.00,Wunderground v.1.15,2013-01-07 10:43:00,
2013-01-07 05:45:00,34.5,29.6,29.95,NW,309,1.0,6.0,82,0.00,,,0.00,Wunderground v.1.15,2013-01-07 10:45:00,
2013-01-07 05:49:00,34.6,29.7,29.96,WNW,299,1.0,6.0,82,0.00,,,0.00,Wunderground v.1.15,2013-01-07 10:49:00,
2013-01-07 05:51:00,34.7,29.8,29.96,WNW,299,1.0,6.0,82,0.00,,,0.00,Wunderground v.1.15,2013-01-07 10:51:00,
2013-01-07 05:52:00,34.8,29.9,29.96,WNW,299,1.0,6.0,82,0.00,,,0.00,Wunderground v.1.15,2013-01-07 10:52:00,
2013-01-07 05:53:00,34.8,29.9,29.96,WNW,299,1.0,6.0,82,0.00,,,0.00,Wunderground v.1.15,2013-01-07 10:53:00,
2013-01-07 05:54:00,34.7,29.8,29.96,WNW,299,1.0,6.0,82,0.00,,,0.00,Wunderground v.1.15,2013-01-07 10:54:00,
2013-01-07 05:56:00,34.7,29.8,29.96,WNW,299,1.0,6.0,82,0.00,,,0.00,Wunderground v.1.15,2013-01-07 10:56:00,
2013-01-07 05:59:00,34.8,29.9,29.97,WNW,291,1.0,6.0,82,0.00,,,0.00,Wunderground v.1.15,2013-01-07 10:59:00,
2013-01-07 06:01:00,34.9,30.0,29.97,NW,321,1.0,2.0,82,0.00,,,0.00,Wunderground v.1.15,2013-01-07 11:01:00,
2013-01-07 06:03:00,34.9,30.0,29.97,NW,325,1.0,4.0,82,0.00,,,0.00,Wunderground v.1.15,2013-01-07 11:03:00,
2013-01-07 06:04:00,35.0,30.1,29.97,NW,313,1.0,4.0,82,0.00,,,0.00,Wunderground v.1.15,2013-01-07 11:04:00,
2013-01-07 06:06:00,34.9,30.0,29.97,WNW,300,1.0,4.0,82,0.00,,,0.00,Wunderground v.1.15,2013-01-07 11:06:00,
2013-01-07 06:07:00,34.9,30.0,29.97,WNW,300,2.0,4.0,82,0.00,,,0.00,Wunderground v.1.15,2013-01-07 11:07:00,
2013-01-07 06:08:00,35.0,30.1,29.97,NW,306,1.0,4.0,82,0.00,,,0.00,Wunderground v.1.15,2013-01-07 11:08:00,
2013-01-07 06:13:00,35.3,30.4,29.98,NW,316,2.0,6.0,82,0.00,,,0.00,Wunderground v.1.15,2013-01-07 11:13:00,
2013-01-07 06:14:00,35.4,30.5,29.98,NW,316,2.0,6.0,82,0.00,,,0.00,Wunderground v.1.15,2013-01-07 11:14:00,
2013-01-07 06:18:00,35.7,30.4,29.98,NNW,331,2.0,6.0,81,0.00,,,0.00,Wunderground v.1.15,2013-01-07 11:18:00,
2013-01-07 06:21:00,35.9,30.6,29.98,NNW,344,3.0,5.0,81,0.00,,,0.00,Wunderground v.1.15,2013-01-07 11:21:00,
2013-01-07 06:23:00,35.8,29.9,29.98,NE,38,3.0,5.0,79,0.00,,,0.00,Wunderground v.1.15,2013-01-07 11:23:00,
2013-01-07 06:24:00,35.4,28.9,29.99,NE,45,3.0,5.0,77,0.00,,,0.00,Wunderground v.1.15,2013-01-07 11:24:00,
2013-01-07 06:27:00,33.6,27.2,29.99,NE,48,2.0,5.0,77,0.00,,,0.00,Wunderground v.1.15,2013-01-07 11:27:00,
2013-01-07 06:28:00,33.3,26.9,29.99,NE,44,2.0,5.0,77,0.00,,,0.00,Wunderground v.1.15,2013-01-07 11:28:00,
2013-01-07 06:30:00,32.5,26.4,29.99,NE,40,2.0,2.0,78,0.00,,,0.00,Wunderground v.1.15,2013-01-07 11:30:00,
2013-01-07 06:32:00,31.6,25.8,29.99,NE,40,1.0,4.0,79,0.00,,,0.00,Wunderground v.1.15,2013-01-07 11:32:00,
2013-01-07 06:33:00,31.0,25.6,29.99,NE,40,1.0,4.0,80,0.00,,,0.00,Wunderground v.1.15,2013-01-07 11:33:00,
2013-01-07 06:36:00,30.2,25.7,29.99,NNE,27,1.0,4.0,83,0.00,,,0.00,Wunderground v.1.15,2013-01-07 11:36:00,
2013-01-07 06:37:00,30.1,25.6,29.99,NNE,27,1.0,4.0,83,0.00,,,0.00,Wunderground v.1.15,2013-01-07 11:37:00,
2013-01-07 06:40:00,29.9,25.9,29.99,NNE,27,0.0,4.0,85,0.00,,,0.00,Wunderground v.1.15,2013-01-07 11:40:00,
2013-01-07 06:43:00,30.1,26.4,29.99,North,350,1.0,4.0,86,0.00,,,0.00,Wunderground v.1.15,2013-01-07 11:43:00,
2013-01-07 06:44:00,30.2,26.8,30.00,NNE,26,1.0,4.0,87,0.00,,,0.00,Wunderground v.1.15,2013-01-07 11:44:00,
2013-01-07 06:47:00,30.8,27.4,30.00,North,5,2.0,6.0,87,0.00,,,0.00,Wunderground v.1.15,2013-01-07 11:47:00,
2013-01-07 06:49:00,31.2,27.5,30.00,NNW,346,3.0,7.0,86,0.00,,,0.00,Wunderground v.1.15,2013-01-07 11:49:00,
2013-01-07 06:51:00,31.6,27.6,30.00,North,5,4.0,10.0,85,0.00,,,0.00,Wunderground v.1.15,2013-01-07 11:51:00,
2013-01-07 06:52:00,31.9,27.6,30.00,NNW,338,4.0,10.0,84,0.00,,,0.00,Wunderground v.1.15,2013-01-07 11:52:00,
2013-01-07 06:56:00,32.8,27.9,30.00,NNW,345,7.0,10.0,82,0.00,,,0.00,Wunderground v.1.15,2013-01-07 11:56:00,
2013-01-07 06:57:00,33.0,27.8,30.00,North,355,7.0,10.0,81,0.00,,,0.00,Wunderground v.1.15,2013-01-07 11:57:00,
2013-01-07 06:58:00,33.2,28.0,30.00,North,355,7.0,10.0,81,0.00,,,0.00,Wunderground v.1.15,2013-01-07 11:58:00,
2013-01-07 07:02:00,33.6,27.8,30.01,North,355,6.0,11.0,79,0.00,,,0.00,Wunderground v.1.15,2013-01-07 12:02:00,
2013-01-07 07:04:00,33.8,27.7,30.01,NW,321,5.0,11.0,78,0.00,,,0.00,Wunderground v.1.15,2013-01-07 12:04:00,
2013-01-07 07:05:00,33.9,27.8,30.01,NNW,340,5.0,11.0,78,0.00,,,0.00,Wunderground v.1.15,2013-01-07 12:05:00,
2013-01-07 07:10:00,33.9,27.4,30.01,NNW,347,6.0,11.0,77,0.00,,,0.00,Wunderground v.1.15,2013-01-07 12:10:00,
2013-01-07 07:11:00,33.9,27.4,30.01,North,5,6.0,11.0,77,0.00,,,0.00,Wunderground v.1.15,2013-01-07 12:11:00,
2013-01-07 07:12:00,33.9,27.4,30.02,NNW,336,6.0,11.0,77,0.00,,,0.00,Wunderground v.1.15,2013-01-07 12:12:00,
2013-01-07 07:15:00,33.9,27.4,30.02,NNE,16,6.0,11.0,77,0.00,,,0.00,Wunderground v.1.15,2013-01-07 12:15:00,
2013-01-07 07:17:00,33.8,27.4,30.02,NNE,22,6.0,11.0,77,0.00,,,0.00,Wunderground v.1.15,2013-01-07 12:17:00,
2013-01-07 07:19:00,33.8,27.4,30.03,North,355,5.0,11.0,77,0.00,,,0.00,Wunderground v.1.15,2013-01-07 12:19:00,
2013-01-07 07:20:00,33.8,27.4,30.03,NNE,14,6.0,11.0,77,0.00,,,0.00,Wunderground v.1.15,2013-01-07 12:20:00,
2013-01-07 07:22:00,33.7,27.3,30.03,NNW,345,5.0,11.0,77,0.00,,,0.00,Wunderground v.1.15,2013-01-07 12:22:00,
2013-01-07 07:23:00,33.6,27.2,30.03,NNW,340,6.0,11.0,77,0.00,,,0.00,Wunderground v.1.15,2013-01-07 12:23:00,
2013-01-07 07:24:00,33.6,27.2,30.03,NNE,20,5.0,11.0,77,0.00,,,0.00,Wunderground v.1.15,2013-01-07 12:24:00,
2013-01-07 07:26:00,33.5,27.1,30.03,North,355,5.0,11.0,77,0.00,,,0.00,Wunderground v.1.15,2013-01-07 12:26:00,
2013-01-07 07:27:00,33.4,27.0,30.03,NNW,340,5.0,11.0,77,0.00,,,0.00,Wunderground v.1.15,2013-01-07 12:27:00,
2013-01-07 07:28:00,33.3,26.9,30.03,NNW,336,6.0,11.0,77,0.00,,,0.00,Wunderground v.1.15,2013-01-07 12:28:00,
2013-01-07 07:32:00,32.8,26.1,30.04,NNW,348,6.0,11.0,76,0.00,,,0.00,Wunderground v.1.15,2013-01-07 12:32:00,
2013-01-07 07:35:00,32.5,25.8,30.04,North,355,8.0,12.0,76,0.00,,,0.00,Wunderground v.1.15,2013-01-07 12:35:00,
2013-01-07 07:36:00,32.4,25.7,30.04,North,355,8.0,13.0,76,0.00,,,0.00,Wunderground v.1.15,2013-01-07 12:36:00,
2013-01-07 07:41:00,31.9,25.2,30.05,NNW,341,9.0,11.0,76,0.00,,,0.00,Wunderground v.1.15,2013-01-07 12:41:00,
2013-01-07 07:44:00,31.6,24.9,30.05,NNW,334,9.0,11.0,76,0.00,,,0.00,Wunderground v.1.15,2013-01-07 12:44:00,
2013-01-07 07:46:00,31.4,24.7,30.05,North,350,9.0,15.0,76,0.00,,,0.00,Wunderground v.1.15,2013-01-07 12:46:00,
2013-01-07 07:47:00,31.4,24.7,30.05,NNW,342,9.0,15.0,76,0.00,,,0.00,Wunderground v.1.15,2013-01-07 12:47:00,
2013-01-07 07:49:00,31.4,24.4,30.05,NNE,18,9.0,15.0,75,0.00,,,0.00,Wunderground v.1.15,2013-01-07 12:49:00,
2013-01-07 07:53:00,31.2,24.2,30.06,North,5,9.0,16.0,75,0.00,,,0.00,Wunderground v.1.15,2013-01-07 12:53:00,
2013-01-07 07:55:00,31.2,24.2,30.06,NNW,337,9.0,16.0,75,0.00,,,0.00,Wunderground v.1.15,2013-01-07 12:55:00,
2013-01-07 07:56:00,31.1,24.1,30.06,NNW,342,8.0,16.0,75,0.00,,,0.00,Wunderground v.1.15,2013-01-07 12:56:00,
2013-01-07 08:00:00,31.0,24.0,30.06,NNW,344,8.0,19.0,75,0.00,,,0.00,Wunderground v.1.15,2013-01-07 13:00:00,
2013-01-07 08:04:00,31.1,24.1,30.07,North,5,9.0,19.0,75,0.00,,,0.00,Wunderground v.1.15,2013-01-07 13:04:00,
2013-01-07 08:05:00,31.1,23.8,30.07,NNW,327,8.0,19.0,74,0.00,,,0.00,Wunderground v.1.15,2013-01-07 13:05:00,
2013-01-07 08:06:00,31.2,23.9,30.07,NNW,346,8.0,19.0,74,0.00,,,0.00,Wunderground v.1.15,2013-01-07 13:06:00,
2013-01-07 08:07:00,31.2,23.9,30.07,North,355,8.0,19.0,74,0.00,,,0.00,Wunderground v.1.15,2013-01-07 13:07:00,
2013-01-07 08:10:00,31.5,23.8,30.07,NNW,329,8.0,19.0,73,0.00,,,0.00,Wunderground v.1.15,2013-01-07 13:10:00,
2013-01-07 08:13:00,31.5,23.8,30.07,North,11,7.0,19.0,73,0.00,,,0.00,Wunderground v.1.15,2013-01-07 13:13:00,
2013-01-07 08:14:00,31.7,24.0,30.07,NNW,342,7.0,19.0,73,0.00,,,0.00,Wunderground v.1.15,2013-01-07 13:14:00,
2013-01-07 08:15:00,31.6,23.9,30.07,North,5,7.0,19.0,73,0.00,,,0.00,Wunderground v.1.15,2013-01-07 13:15:00,
2013-01-07 08:18:00,31.5,23.5,30.07,North,355,6.0,19.0,72,0.00,,,0.00,Wunderground v.1.15,2013-01-07 13:18:00,
2013-01-07 08:20:00,31.6,23.9,30.07,North,5,6.0,6.0,73,0.00,,,0.00,Wunderground v.1.15,2013-01-07 13:20:00,
2013-01-07 08:22:00,31.7,23.7,30.08,NNE,22,5.0,19.0,72,0.00,,,0.00,Wunderground v.1.15,2013-01-07 13:22:00,
2013-01-07 08:25:00,31.7,23.7,30.08,NW,325,4.0,19.0,72,0.00,,,0.00,Wunderground v.1.15,2013-01-07 13:25:00,
2013-01-07 08:27:00,31.7,23.7,30.08,North,355,4.0,19.0,72,0.00,,,0.00,Wunderground v.1.15,2013-01-07 13:27:00,
2013-01-07 08:28:00,31.7,23.7,30.08,NNW,346,4.0,19.0,72,0.00,,,0.00,Wunderground v.1.15,2013-01-07 13:28:00,
2013-01-07 08:31:00,31.8,23.8,30.09,NE,42,4.0,19.0,72,0.00,,,0.00,Wunderground v.1.15,2013-01-07 13:31:00,
2013-01-07 08:32:00,32.0,24.0,30.09,NNE,24,4.0,19.0,72,0.00,,,0.00,Wunderground v.1.15,2013-01-07 13:32:00,
2013-01-07 08:35:00,32.0,24.0,30.09,North,360,4.0,19.0,72,0.00,,,0.00,Wunderground v.1.15,2013-01-07 13:35:00,
2013-01-07 08:36:00,31.9,23.9,30.09,NNE,27,4.0,19.0,72,0.00,,,0.00,Wunderground v.1.15,2013-01-07 13:36:00,
2013-01-07 08:37:00,31.9,23.9,30.09,NNE,18,4.0,19.0,72,0.00,,,0.00,Wunderground v.1.15,2013-01-07 13:37:00,
2013-01-07 08:40:00,31.8,23.8,30.09,NNE,25,3.0,19.0,72,0.00,,,0.00,Wunderground v.1.15,2013-01-07 13:40:00,
2013-01-07 08:42:00,31.6,23.3,30.10,NNW,333,4.0,19.0,71,0.00,,,0.00,Wunderground v.1.15,2013-01-07 13:42:00,
2013-01-07 08:43:00,31.3,23.0,30.10,NNW,333,4.0,19.0,71,0.00,,,0.00,Wunderground v.1.15,2013-01-07 13:43:00,
2013-01-07 08:44:00,31.1,22.8,30.10,NNW,340,4.0,19.0,71,0.00,,,0.00,Wunderground v.1.15,2013-01-07 13:44:00,
2013-01-07 08:46:00,30.9,22.9,30.10,North,355,5.0,19.0,72,0.00,,,0.00,Wunderground v.1.15,2013-01-07 13:46:00,
2013-01-07 08:48:00,30.9,22.9,30.10,NW,320,6.0,19.0,72,0.00,,,0.00,Wunderground v.1.15,2013-01-07 13:48:00,
2013-01-07 08:49:00,31.0,23.0,30.10,NNW,335,6.0,19.0,72,0.00,,,0.00,Wunderground v.1.15,2013-01-07 13:49:00,
2013-01-07 08:51:00,31.1,23.1,30.10,NNW,336,6.0,19.0,72,0.00,,,0.00,Wunderground v.1.15,2013-01-07 13:51:00,
2013-01-07 08:54:00,31.4,23.1,30.11,NNE,21,6.0,19.0,71,0.00,,,0.00,Wunderground v.1.15,2013-01-07 13:54:00,
2013-01-07 08:55:00,31.5,23.2,30.11,NNE,12,5.0,19.0,71,0.00,,,0.00,Wunderground v.1.15,2013-01-07 13:55:00,
2013-01-07 08:56:00,32.0,23.7,30.11,North,5,5.0,19.0,71,0.00,,,0.00,Wunderground v.1.15,2013-01-07 13:56:00,
2013-01-07 08:58:00,32.3,23.6,30.11,North,10,4.0,19.0,70,0.00,,,0.00,Wunderground v.1.15,2013-01-07 13:58:00,
2013-01-07 09:00:00,31.9,22.9,30.11,NNW,343,4.0,13.0,69,0.00,,,0.00,Wunderground v.1.15,2013-01-07 14:00:00,
2013-01-07 09:03:00,31.2,21.9,30.11,North,11,4.0,13.0,68,0.00,,,0.00,Wunderground v.1.15,2013-01-07 14:03:00,
2013-01-07 09:04:00,31.1,21.8,30.12,NNW,344,5.0,13.0,68,0.00,,,0.00,Wunderground v.1.15,2013-01-07 14:04:00,
2013-01-07 09:09:00,30.8,21.5,30.12,NNE,20,7.0,13.0,68,0.00,,,0.00,Wunderground v.1.15,2013-01-07 14:09:00,
2013-01-07 09:11:00,31.1,21.8,30.13,North,349,7.0,13.0,68,0.00,,,0.00,Wunderground v.1.15,2013-01-07 14:11:00,
2013-01-07 09:15:00,30.6,20.9,30.14,NNW,339,7.0,13.0,67,0.00,,,0.00,Wunderground v.1.15,2013-01-07 14:15:00,
2013-01-07 09:17:00,30.5,21.2,30.14,North,5,7.0,13.0,68,0.00,,,0.00,Wunderground v.1.15,2013-01-07 14:17:00,
2013-01-07 09:21:00,30.3,21.0,30.15,NNW,331,7.0,13.0,68,0.00,,,0.00,Wunderground v.1.15,2013-01-07 14:21:00,
2013-01-07 09:22:00,30.2,20.9,30.15,NNW,331,7.0,13.0,68,0.00,,,0.00,Wunderground v.1.15,2013-01-07 14:22:00,
2013-01-07 09:23:00,30.2,20.9,30.15,NNW,332,7.0,13.0,68,0.00,,,0.00,Wunderground v.1.15,2013-01-07 14:23:00,
2013-01-07 09:25:00,30.3,21.0,30.15,WNW,296,8.0,13.0,68,0.00,,,0.00,Wunderground v.1.15,2013-01-07 14:25:00,
2013-01-07 09:29:00,30.4,21.1,30.15,North,10,9.0,13.0,68,0.00,,,0.00,Wunderground v.1.15,2013-01-07 14:29:00,
2013-01-07 09:31:00,30.6,21.3,30.15,NNE,29,9.0,13.0,68,0.00,,,0.00,Wunderground v.1.15,2013-01-07 14:31:00,
2013-01-07 09:33:00,30.4,20.7,30.15,NNE,30,9.0,15.0,67,0.00,,,0.00,Wunderground v.1.15,2013-01-07 14:33:00,
2013-01-07 09:34:00,30.4,20.7,30.15,NNW,343,9.0,15.0,67,0.00,,,0.00,Wunderground v.1.15,2013-01-07 14:34:00,
2013-01-07 09:37:00,30.4,21.1,30.15,North,355,9.0,15.0,68,0.00,,,0.00,Wunderground v.1.15,2013-01-07 14:37:00,
2013-01-07 09:38:00,30.3,21.0,30.15,NNE,20,9.0,15.0,68,0.00,,,0.00,Wunderground v.1.15,2013-01-07 14:38:00,
2013-01-07 09:39:00,30.3,21.0,30.16,NNE,19,9.0,15.0,68,0.00,,,0.00,Wunderground v.1.15,2013-01-07 14:39:00,
2013-01-07 09:40:00,30.4,21.1,30.15,NNE,16,9.0,9.0,68,0.00,,,0.00,Wunderground v.1.15,2013-01-07 14:40:00,
2013-01-07 09:44:00,30.4,21.1,30.16,North,351,8.0,13.0,68,0.00,,,0.00,Wunderground v.1.15,2013-01-07 14:44:00,
2013-01-07 09:46:00,30.4,21.1,30.16,North,351,8.0,13.0,68,0.00,,,0.00,Wunderground v.1.15,2013-01-07 14:46:00,
2013-01-07 09:49:00,30.1,20.8,30.16,NNW,331,8.0,13.0,68,0.00,,,0.00,Wunderground v.1.15,2013-01-07 14:49:00,
2013-01-07 09:50:00,30.1,21.2,30.16,North,355,9.0,13.0,69,0.00,,,0.00,Wunderground v.1.15,2013-01-07 14:50:00,
2013-01-07 09:51:00,30.0,20.7,30.16,North,355,9.0,13.0,68,0.00,,,0.00,Wunderground v.1.15,2013-01-07 14:51:00,
2013-01-07 09:54:00,30.1,20.8,30.16,NNW,334,11.0,18.0,68,0.00,,,0.00,Wunderground v.1.15,2013-01-07 14:54:00,
2013-01-07 09:56:00,30.3,21.0,30.16,NNE,19,10.0,18.0,68,0.00,,,0.00,Wunderground v.1.15,2013-01-07 14:56:00,
2013-01-07 09:57:00,30.3,21.0,30.16,North,355,10.0,18.0,68,0.00,,,0.00,Wunderground v.1.15,2013-01-07 14:57:00,
2013-01-07 10:02:00,30.2,20.9,30.16,ENE,60,10.0,14.0,68,0.00,,,0.00,Wunderground v.1.15,2013-01-07 15:02:00,
2013-01-07 10:03:00,30.3,21.0,30.16,North,355,10.0,14.0,68,0.00,,,0.00,Wunderground v.1.15,2013-01-07 15:03:00,
2013-01-07 10:06:00,30.3,20.6,30.16,NNE,20,9.0,14.0,67,0.00,,,0.00,Wunderground v.1.15,2013-01-07 15:06:00,
2013-01-07 10:07:00,30.3,20.6,30.16,NNE,30,10.0,14.0,67,0.00,,,0.00,Wunderground v.1.15,2013-01-07 15:07:00,
2013-01-07 10:11:00,30.2,20.9,30.16,North,10,9.0,15.0,68,0.00,,,0.00,Wunderground v.1.15,2013-01-07 15:11:00,
2013-01-07 10:13:00,30.1,20.5,30.16,NNW,346,9.0,15.0,67,0.00,,,0.00,Wunderground v.1.15,2013-01-07 15:13:00,
2013-01-07 10:14:00,30.1,20.8,30.16,NNW,335,9.0,15.0,68,0.00,,,0.00,Wunderground v.1.15,2013-01-07 15:14:00,
2013-01-07 10:15:00,30.1,20.8,30.16,NE,36,9.0,15.0,68,0.00,,,0.00,Wunderground v.1.15,2013-01-07 15:15:00,
2013-01-07 10:19:00,30.1,20.8,30.17,NNW,329,7.0,15.0,68,0.00,,,0.00,Wunderground v.1.15,2013-01-07 15:19:00,
2013-01-07 10:20:00,30.0,20.4,30.17,NNW,345,7.0,7.0,67,0.00,,,0.00,Wunderground v.1.15,2013-01-07 15:20:00,
2013-01-07 10:23:00,30.1,20.5,30.17,NE,49,7.0,13.0,67,0.00,,,0.00,Wunderground v.1.15,2013-01-07 15:23:00,
2013-01-07 10:24:00,30.1,20.5,30.17,NNE,25,7.0,13.0,67,0.00,,,0.00,Wunderground v.1.15,2013-01-07 15:24:00,
2013-01-07 10:28:00,30.1,20.5,30.17,North,360,7.0,13.0,67,0.00,,,0.00,Wunderground v.1.15,2013-01-07 15:28:00,
2013-01-07 10:31:00,30.0,20.4,30.17,North,9,8.0,14.0,67,0.00,,,0.00,Wunderground v.1.15,2013-01-07 15:31:00,
2013-01-07 10:33:00,30.2,20.6,30.17,NE,51,7.0,14.0,67,0.00,,,0.00,Wunderground v.1.15,2013-01-07 15:33:00,
2013-01-07 10:34:00,30.2,20.6,30.17,North,355,7.0,14.0,67,0.00,,,0.00,Wunderground v.1.15,2013-01-07 15:34:00,
2013-01-07 10:35:00,30.2,20.6,30.17,NNE,28,6.0,14.0,67,0.00,,,0.00,Wunderground v.1.15,2013-01-07 15:35:00,
2013-01-07 10:37:00,30.3,20.6,30.17,NNE,28,7.0,14.0,67,0.00,,,0.00,Wunderground v.1.15,2013-01-07 15:37:00,
2013-01-07 10:39:00,30.2,20.2,30.17,NE,36,8.0,14.0,66,0.00,,,0.00,Wunderground v.1.15,2013-01-07 15:39:00,
2013-01-07 10:41:00,30.3,20.3,30.17,NNW,347,7.0,13.0,66,0.00,,,0.00,Wunderground v.1.15,2013-01-07 15:41:00,
2013-01-07 10:42:00,30.3,20.3,30.17,North,5,8.0,13.0,66,0.00,,,0.00,Wunderground v.1.15,2013-01-07 15:42:00,
2013-01-07 10:45:00,30.4,20.4,30.17,North,5,8.0,13.0,66,0.00,,,0.00,Wunderground v.1.15,2013-01-07 15:45:00,
2013-01-07 10:48:00,30.5,20.5,30.17,NNE,17,7.0,13.0,66,0.00,,,0.00,Wunderground v.1.15,2013-01-07 15:48:00,
2013-01-07 10:49:00,30.3,20.3,30.18,North,5,7.0,13.0,66,0.00,,,0.00,Wunderground v.1.15,2013-01-07 15:49:00,
2013-01-07 10:51:00,30.4,20.4,30.18,NNE,32,8.0,13.0,66,0.00,,,0.00,Wunderground v.1.15,2013-01-07 15:51:00,
2013-01-07 10:54:00,30.5,20.5,30.18,NNE,23,7.0,13.0,66,0.00,,,0.00,Wunderground v.1.15,2013-01-07 15:54:00,
2013-01-07 10:56:00,30.5,20.1,30.18,NNE,15,7.0,13.0,65,0.00,,,0.00,Wunderground v.1.15,2013-01-07 15:56:00,
2013-01-07 10:57:00,30.5,20.1,30.18,NE,35,7.0,13.0,65,0.00,,,0.00,Wunderground v.1.15,2013-01-07 15:57:00,
2013-01-07 10:58:00,30.5,20.1,30.18,NNE,32,7.0,13.0,65,0.00,,,0.00,Wunderground v.1.15,2013-01-07 15:58:00,
2013-01-07 11:00:00,30.7,20.7,30.18,NNE,15,6.0,18.0,66,0.00,,,0.00,Wunderground v.1.15,2013-01-07 16:00:00,
2013-01-07 11:05:00,31.2,20.4,30.18,NW,315,6.0,18.0,64,0.00,,,0.00,Wunderground v.1.15,2013-01-07 16:05:00,
2013-01-07 11:06:00,31.2,20.4,30.18,NNE,12,6.0,18.0,64,0.00,,,0.00,Wunderground v.1.15,2013-01-07 16:06:00,
2013-01-07 11:07:00,31.2,20.4,30.18,NNE,17,6.0,18.0,64,0.00,,,0.00,Wunderground v.1.15,2013-01-07 16:07:00,
2013-01-07 11:09:00,31.1,20.3,30.18,North,11,7.0,18.0,64,0.00,,,0.00,Wunderground v.1.15,2013-01-07 16:09:00,
2013-01-07 11:11:00,31.0,20.2,30.18,NNE,19,7.0,18.0,64,0.00,,,0.00,Wunderground v.1.15,2013-01-07 16:11:00,
2013-01-07 11:15:00,31.1,20.0,30.18,NE,50,6.0,18.0,63,0.00,,,0.00,Wunderground v.1.15,2013-01-07 16:15:00,
2013-01-07 11:18:00,30.9,19.8,30.18,North,355,6.0,18.0,63,0.00,,,0.00,Wunderground v.1.15,2013-01-07 16:18:00,
2013-01-07 11:19:00,31.0,19.9,30.18,NNE,25,6.0,18.0,63,0.00,,,0.00,Wunderground v.1.15,2013-01-07 16:19:00,
2013-01-07 11:21:00,31.4,20.2,30.18,NNW,340,6.0,18.0,63,0.00,,,0.00,Wunderground v.1.15,2013-01-07 16:21:00,
2013-01-07 11:24:00,31.1,20.0,30.18,NE,55,7.0,18.0,63,0.00,,,0.00,Wunderground v.1.15,2013-01-07 16:24:00,
2013-01-07 11:26:00,30.9,19.8,30.18,North,5,7.0,18.0,63,0.00,,,0.00,Wunderground v.1.15,2013-01-07 16:26:00,
2013-01-07 11:30:00,30.9,19.4,30.18,NNW,331,6.0,6.0,62,0.00,,,0.00,Wunderground v.1.15,2013-01-07 16:30:00,
2013-01-07 11:31:00,30.9,19.8,30.18,NNE,19,6.0,18.0,63,0.00,,,0.00,Wunderground v.1.15,2013-01-07 16:31:00,
2013-01-07 11:32:00,30.9,19.8,30.18,NNE,25,5.0,18.0,63,0.00,,,0.00,Wunderground v.1.15,2013-01-07 16:32:00,
2013-01-07 11:36:00,31.2,20.1,30.18,NE,49,5.0,18.0,63,0.00,,,0.00,Wunderground v.1.15,2013-01-07 16:36:00,
2013-01-07 11:37:00,31.2,19.7,30.18,NNE,23,5.0,18.0,62,0.00,,,0.00,Wunderground v.1.15,2013-01-07 16:37:00,
2013-01-07 11:38:00,31.3,20.2,30.18,NNE,17,5.0,18.0,63,0.00,,,0.00,Wunderground v.1.15,2013-01-07 16:38:00,
2013-01-07 11:43:00,31.2,20.1,30.18,NNW,329,4.0,18.0,63,0.00,,,0.00,Wunderground v.1.15,2013-01-07 16:43:00,
2013-01-07 11:46:00,31.0,19.9,30.18,West,273,3.0,18.0,63,0.00,,,0.00,Wunderground v.1.15,2013-01-07 16:46:00,
2013-01-07 11:47:00,30.9,19.8,30.18,ENE,63,3.0,18.0,63,0.00,,,0.00,Wunderground v.1.15,2013-01-07 16:47:00,
2013-01-07 11:49:00,31.0,19.9,30.18,WNW,296,2.0,18.0,63,0.00,,,0.00,Wunderground v.1.15,2013-01-07 16:49:00,
2013-01-07 11:50:00,31.1,20.0,30.18,South,190,2.0,2.0,63,0.00,,,0.00,Wunderground v.1.15,2013-01-07 16:50:00,
2013-01-07 11:52:00,31.0,19.9,30.18,West,265,2.0,18.0,63,0.00,,,0.00,Wunderground v.1.15,2013-01-07 16:52:00,
2013-01-07 11:53:00,30.8,19.7,30.18,North,5,2.0,18.0,63,0.00,,,0.00,Wunderground v.1.15,2013-01-07 16:53:00,
2013-01-07 11:57:00,31.0,19.9,30.18,NNW,346,2.0,18.0,63,0.00,,,0.00,Wunderground v.1.15,2013-01-07 16:57:00,
2013-01-07 11:59:00,31.1,20.0,30.18,NW,317,3.0,18.0,63,0.00,,,0.00,Wunderground v.1.15,2013-01-07 16:59:00,
2013-01-07 12:02:00,31.0,19.9,30.18,NNW,340,3.0,11.0,63,0.00,,,0.00,Wunderground v.1.15,2013-01-07 17:02:00,
2013-01-07 12:03:00,31.0,19.9,30.17,ESE,119,2.0,11.0,63,0.00,,,0.00,Wunderground v.1.15,2013-01-07 17:03:00,
2013-01-07 12:04:00,31.2,20.1,30.17,NNE,22,3.0,11.0,63,0.00,,,0.00,Wunderground v.1.15,2013-01-07 17:04:00,
2013-01-07 12:08:00,31.3,19.8,30.18,NNW,338,3.0,11.0,62,0.00,,,0.00,Wunderground v.1.15,2013-01-07 17:08:00,
2013-01-07 12:09:00,31.3,20.2,30.18,ENE,72,3.0,11.0,63,0.00,,,0.00,Wunderground v.1.15,2013-01-07 17:09:00,
2013-01-07 12:13:00,31.4,19.9,30.18,North,5,3.0,11.0,62,0.00,,,0.00,Wunderground v.1.15,2013-01-07 17:13:00,
2013-01-07 12:15:00,31.5,20.0,30.18,NE,45,3.0,11.0,62,0.00,,,0.00,Wunderground v.1.15,2013-01-07 17:15:00,
2013-01-07 12:16:00,31.5,20.0,30.18,NE,35,2.0,11.0,62,0.00,,,0.00,Wunderground v.1.15,2013-01-07 17:16:00,
2013-01-07 12:21:00,31.5,19.6,30.18,SE,142,2.0,11.0,61,0.00,,,0.00,Wunderground v.1.15,2013-01-07 17:21:00,
2013-01-07 12:22:00,31.4,19.5,30.18,NW,306,2.0,11.0,61,0.00,,,0.00,Wunderground v.1.15,2013-01-07 17:22:00,
2013-01-07 12:24:00,31.7,19.8,30.18,North,5,2.0,11.0,61,0.00,,,0.00,Wunderground v.1.15,2013-01-07 17:24:00,
2013-01-07 12:25:00,32.0,20.1,30.18,East,101,2.0,11.0,61,0.00,,,0.00,Wunderground v.1.15,2013-01-07 17:25:00,
2013-01-07 12:27:00,32.4,20.4,30.18,North,5,2.0,11.0,61,0.00,,,0.00,Wunderground v.1.15,2013-01-07 17:27:00,
2013-01-07 12:31:00,32.3,20.3,30.18,NE,40,2.0,11.0,61,0.00,,,0.00,Wunderground v.1.15,2013-01-07 17:31:00,
2013-01-07 12:32:00,32.5,20.1,30.17,NNE,28,2.0,11.0,60,0.00,,,0.00,Wunderground v.1.15,2013-01-07 17:32:00,
2013-01-07 12:33:00,32.6,20.2,30.17,NNE,14,2.0,11.0,60,0.00,,,0.00,Wunderground v.1.15,2013-01-07 17:33:00,
2013-01-07 12:37:00,32.5,19.7,30.17,WNW,302,3.0,11.0,59,0.00,,,0.00,Wunderground v.1.15,2013-01-07 17:37:00,
2013-01-07 12:38:00,32.5,19.7,30.17,NNE,23,3.0,11.0,59,0.00,,,0.00,Wunderground v.1.15,2013-01-07 17:38:00,
2013-01-07 12:40:00,32.6,19.8,30.17,East,86,4.0,4.0,59,0.00,,,0.00,Wunderground v.1.15,2013-01-07 17:40:00,
2013-01-07 12:44:00,32.8,20.0,30.17,North,360,3.0,11.0,59,0.00,,,0.00,Wunderground v.1.15,2013-01-07 17:44:00,
2013-01-07 12:45:00,32.9,20.1,30.17,NNE,24,3.0,11.0,59,0.00,,,0.00,Wunderground v.1.15,2013-01-07 17:45:00,
2013-01-07 12:46:00,32.8,19.6,30.17,North,360,3.0,11.0,58,0.00,,,0.00,Wunderground v.1.15,2013-01-07 17:46:00,
2013-01-07 12:47:00,32.8,19.6,30.17,NNE,22,3.0,11.0,58,0.00,,,0.00,Wunderground v.1.15,2013-01-07 17:47:00,
2013-01-07 12:51:00,32.5,19.3,30.17,NNE,28,3.0,11.0,58,0.00,,,0.00,Wunderground v.1.15,2013-01-07 17:51:00,
2013-01-07 12:52:00,32.5,19.3,30.17,NNE,22,3.0,11.0,58,0.00,,,0.00,Wunderground v.1.15,2013-01-07 17:52:00,
2013-01-07 12:53:00,32.6,19.4,30.17,NNE,30,4.0,11.0,58,0.00,,,0.00,Wunderground v.1.15,2013-01-07 17:53:00,
2013-01-07 12:54:00,32.5,19.3,30.17,North,355,4.0,11.0,58,0.00,,,0.00,Wunderground v.1.15,2013-01-07 17:54:00,
2013-01-07 12:56:00,32.5,19.3,30.17,North,5,4.0,11.0,58,0.00,,,0.00,Wunderground v.1.15,2013-01-07 17:56:00,
2013-01-07 13:01:00,32.7,19.1,30.17,NNE,32,4.0,9.0,57,0.00,,,0.00,Wunderground v.1.15,2013-01-07 18:01:00,
2013-01-07 13:02:00,32.6,19.0,30.18,NNE,23,5.0,9.0,57,0.00,,,0.00,Wunderground v.1.15,2013-01-07 18:02:00,
2013-01-07 13:04:00,32.9,19.7,30.18,NNE,17,4.0,9.0,58,0.00,,,0.00,Wunderground v.1.15,2013-01-07 18:04:00,
2013-01-07 13:07:00,33.0,19.4,30.17,East,88,4.0,9.0,57,0.00,,,0.00,Wunderground v.1.15,2013-01-07 18:07:00,
2013-01-07 13:09:00,33.1,19.5,30.17,NNE,24,3.0,9.0,57,0.00,,,0.00,Wunderground v.1.15,2013-01-07 18:09:00,
2013-01-07 13:10:00,33.2,20.0,30.17,North,5,3.0,9.0,58,0.00,,,0.00,Wunderground v.1.15,2013-01-07 18:10:00,
2013-01-07 13:13:00,33.2,21.2,30.17,NNW,329,2.0,9.0,61,0.00,,,0.00,Wunderground v.1.15,2013-01-07 18:13:00,
2013-01-07 13:14:00,33.4,20.2,30.17,NNE,25,1.0,9.0,58,0.00,,,0.00,Wunderground v.1.15,2013-01-07 18:14:00,
2013-01-07 13:15:00,33.5,19.9,30.18,NE,53,1.0,9.0,57,0.00,,,0.00,Wunderground v.1.15,2013-01-07 18:15:00,
2013-01-07 13:17:00,33.7,20.1,30.18,NE,34,1.0,9.0,57,0.00,,,0.00,Wunderground v.1.15,2013-01-07 18:17:00,
2013-01-07 13:20:00,33.7,20.1,30.18,NNE,24,1.0,9.0,57,0.00,,,0.00,Wunderground v.1.15,2013-01-07 18:20:00,
2013-01-07 13:21:00,33.7,20.1,30.18,NNE,18,1.0,9.0,57,0.00,,,0.00,Wunderground v.1.15,2013-01-07 18:21:00,
2013-01-07 13:23:00,33.6,20.0,30.18,ENE,57,1.0,9.0,57,0.00,,,0.00,Wunderground v.1.15,2013-01-07 18:23:00,
2013-01-07 13:24:00,33.6,20.0,30.18,NNW,336,1.0,9.0,57,0.00,,,0.00,Wunderground v.1.15,2013-01-07 18:24:00,
2013-01-07 13:27:00,33.8,20.2,30.18,NNE,30,1.0,9.0,57,0.00,,,0.00,Wunderground v.1.15,2013-01-07 18:27:00,
2013-01-07 13:28:00,34.1,20.4,30.18,NNE,26,1.0,9.0,57,0.00,,,0.00,Wunderground v.1.15,2013-01-07 18:28:00,
2013-01-07 13:30:00,33.9,19.8,30.19,NNE,23,1.0,9.0,56,0.00,,,0.00,Wunderground v.1.15,2013-01-07 18:30:00,
2013-01-07 13:33:00,34.2,20.1,30.18,NNE,32,1.0,9.0,56,0.00,,,0.00,Wunderground v.1.15,2013-01-07 18:33:00,
2013-01-07 13:35:00,34.4,20.3,30.18,North,5,1.0,9.0,56,0.00,,,0.00,Wunderground v.1.15,2013-01-07 18:35:00,
2013-01-07 13:36:00,34.3,19.8,30.18,ENE,65,2.0,9.0,55,0.00,,,0.00,Wunderground v.1.15,2013-01-07 18:36:00,
2013-01-07 13:39:00,34.5,20.0,30.19,NNE,13,3.0,9.0,55,0.00,,,0.00,Wunderground v.1.15,2013-01-07 18:39:00,
2013-01-07 13:40:00,34.5,19.5,30.18,North,355,3.0,3.0,54,0.00,,,0.00,Wunderground v.1.15,2013-01-07 18:40:00,
2013-01-07 13:41:00,34.3,18.9,30.19,NNW,346,3.0,5.0,53,0.00,,,0.00,Wunderground v.1.15,2013-01-07 18:41:00,
2013-01-07 13:42:00,34.1,19.2,30.19,North,360,3.0,9.0,54,0.00,,,0.00,Wunderground v.1.15,2013-01-07 18:42:00,
2013-01-07 13:45:00,34.2,19.3,30.19,North,355,3.0,9.0,54,0.00,,,0.00,Wunderground v.1.15,2013-01-07 18:45:00,
2013-01-07 13:50:00,34.3,19.4,30.19,NNE,28,3.0,9.0,54,0.00,,,0.00,Wunderground v.1.15,2013-01-07 18:50:00,
2013-01-07 13:53:00,34.0,18.6,30.19,NNW,329,4.0,9.0,53,0.00,,,0.00,Wunderground v.1.15,2013-01-07 18:53:00,
2013-01-07 13:55:00,34.1,19.2,30.19,North,351,3.0,9.0,54,0.00,,,0.00,Wunderground v.1.15,2013-01-07 18:55:00,
2013-01-07 13:57:00,34.1,19.2,30.19,North,355,3.0,9.0,54,0.00,,,0.00,Wunderground v.1.15,2013-01-07 18:57:00,
2013-01-07 13:59:00,33.9,19.0,30.19,NW,324,3.0,9.0,54,0.00,,,0.00,Wunderground v.1.15,2013-01-07 18:59:00,
2013-01-07 14:03:00,34.4,19.5,30.19,NNE,19,1.0,9.0,54,0.00,,,0.00,Wunderground v.1.15,2013-01-07 19:03:00,
2013-01-07 14:05:00,34.5,19.5,30.19,NNE,21,1.0,9.0,54,0.00,,,0.00,Wunderground v.1.15,2013-01-07 19:05:00,
2013-01-07 14:07:00,34.6,19.2,30.19,NNW,342,1.0,9.0,53,0.00,,,0.00,Wunderground v.1.15,2013-01-07 19:07:00,
2013-01-07 14:09:00,34.4,19.0,30.19,NE,45,1.0,9.0,53,0.00,,,0.00,Wunderground v.1.15,2013-01-07 19:09:00,
2013-01-07 14:11:00,34.3,19.4,30.20,NE,34,1.0,9.0,54,0.00,,,0.00,Wunderground v.1.15,2013-01-07 19:11:00,
2013-01-07 14:12:00,34.3,19.4,30.20,NE,34,2.0,9.0,54,0.00,,,0.00,Wunderground v.1.15,2013-01-07 19:12:00,
2013-01-07 14:14:00,34.4,19.5,30.20,NNW,339,2.0,9.0,54,0.00,,,0.00,Wunderground v.1.15,2013-01-07 19:14:00,
2013-01-07 14:19:00,34.3,18.9,30.20,NW,306,1.0,9.0,53,0.00,,,0.00,Wunderground v.1.15,2013-01-07 19:19:00,
2013-01-07 14:21:00,34.0,19.1,30.20,NNE,30,1.0,9.0,54,0.00,,,0.00,Wunderground v.1.15,2013-01-07 19:21:00,
2013-01-07 14:22:00,33.9,19.0,30.20,NNE,30,1.0,9.0,54,0.00,,,0.00,Wunderground v.1.15,2013-01-07 19:22:00,
2013-01-07 14:24:00,34.1,19.2,30.20,WNW,300,1.0,9.0,54,0.00,,,0.00,Wunderground v.1.15,2013-01-07 19:24:00,
2013-01-07 14:26:00,34.1,18.7,30.20,SE,144,0.0,9.0,53,0.00,,,0.00,Wunderground v.1.15,2013-01-07 19:26:00,
2013-01-07 14:27:00,33.9,18.6,30.20,NW,311,0.0,9.0,53,0.00,,,0.00,Wunderground v.1.15,2013-01-07 19:27:00,
2013-01-07 14:29:00,33.9,18.6,30.20,WNW,302,1.0,9.0,53,0.00,,,0.00,Wunderground v.1.15,2013-01-07 19:29:00,
2013-01-07 14:31:00,34.0,18.6,30.20,SE,145,0.0,9.0,53,0.00,,,0.00,Wunderground v.1.15,2013-01-07 19:31:00,
2013-01-07 14:33:00,34.4,19.0,30.20,NE,42,1.0,9.0,53,0.00,,,0.00,Wunderground v.1.15,2013-01-07 19:33:00,
2013-01-07 14:36:00,34.5,18.7,30.20,NNE,26,1.0,9.0,52,0.00,,,0.00,Wunderground v.1.15,2013-01-07 19:36:00,
2013-01-07 14:37:00,34.6,19.2,30.20,NNE,23,1.0,9.0,53,0.00,,,0.00,Wunderground v.1.15,2013-01-07 19:37:00,
2013-01-07 14:41:00,34.3,18.5,30.20,NE,53,0.0,9.0,52,0.00,,,0.00,Wunderground v.1.15,2013-01-07 19:41:00,
2013-01-07 14:43:00,34.4,18.6,30.20,NE,49,0.0,9.0,52,0.00,,,0.00,Wunderground v.1.15,2013-01-07 19:43:00,
2013-01-07 14:45:00,34.4,18.1,30.20,ENE,60,0.0,9.0,51,0.00,,,0.00,Wunderground v.1.15,2013-01-07 19:45:00,
2013-01-07 14:47:00,34.3,18.0,30.20,ESE,114,0.0,9.0,51,0.00,,,0.00,Wunderground v.1.15,2013-01-07 19:47:00,
2013-01-07 14:49:00,34.2,17.9,30.20,East,92,1.0,9.0,51,0.00,,,0.00,Wunderground v.1.15,2013-01-07 19:49:00,
2013-01-07 14:51:00,34.3,18.0,30.20,East,86,1.0,9.0,51,0.00,,,0.00,Wunderground v.1.15,2013-01-07 19:51:00,
2013-01-07 14:54:00,34.4,18.6,30.20,East,93,1.0,9.0,52,0.00,,,0.00,Wunderground v.1.15,2013-01-07 19:54:00,
2013-01-07 14:55:00,34.4,18.1,30.20,East,93,1.0,9.0,51,0.00,,,0.00,Wunderground v.1.15,2013-01-07 19:55:00,
2013-01-07 14:57:00,34.4,18.1,30.20,East,93,0.0,9.0,51,0.00,,,0.00,Wunderground v.1.15,2013-01-07 19:57:00,
2013-01-07 14:59:00,34.2,17.9,30.20,East,93,0.0,9.0,51,0.00,,,0.00,Wunderground v.1.15,2013-01-07 19:59:00,
2013-01-07 15:02:00,34.5,18.7,30.20,East,92,0.0,4.0,52,0.00,,,0.00,Wunderground v.1.15,2013-01-07 20:02:00,
2013-01-07 15:03:00,34.5,18.2,30.20,East,92,0.0,4.0,51,0.00,,,0.00,Wunderground v.1.15,2013-01-07 20:03:00,
2013-01-07 15:08:00,34.5,18.2,30.20,East,86,0.0,4.0,51,0.00,,,0.00,Wunderground v.1.15,2013-01-07 20:08:00,
2013-01-07 15:09:00,34.5,18.2,30.21,East,86,0.0,4.0,51,0.00,,,0.00,Wunderground v.1.15,2013-01-07 20:09:00,
2013-01-07 15:10:00,34.4,18.1,30.21,East,86,0.0,4.0,51,0.00,,,0.00,Wunderground v.1.15,2013-01-07 20:10:00,
2013-01-07 15:14:00,34.4,18.1,30.21,East,86,0.0,4.0,51,0.00,,,0.00,Wunderground v.1.15,2013-01-07 20:14:00,
2013-01-07 15:15:00,34.4,18.6,30.21,East,86,0.0,4.0,52,0.00,,,0.00,Wunderground v.1.15,2013-01-07 20:15:00,
2013-01-07 15:16:00,34.5,18.7,30.21,East,86,0.0,4.0,52,0.00,,,0.00,Wunderground v.1.15,2013-01-07 20:16:00,
2013-01-07 15:18:00,34.2,17.9,30.21,East,86,0.0,4.0,51,0.00,,,0.00,Wunderground v.1.15,2013-01-07 20:18:00,
2013-01-07 15:21:00,34.3,18.0,30.21,East,86,0.0,4.0,51,0.00,,,0.00,Wunderground v.1.15,2013-01-07 20:21:00,
2013-01-07 15:22:00,34.3,18.0,30.21,East,86,0.0,4.0,51,0.00,,,0.00,Wunderground v.1.15,2013-01-07 20:22:00,
2013-01-07 15:23:00,34.2,17.9,30.21,East,86,0.0,4.0,51,0.00,,,0.00,Wunderground v.1.15,2013-01-07 20:23:00,
2013-01-07 15:27:00,34.0,17.7,30.21,East,86,0.0,4.0,51,0.00,,,0.00,Wunderground v.1.15,2013-01-07 20:27:00,
2013-01-07 15:28:00,34.1,18.3,30.21,East,86,0.0,4.0,52,0.00,,,0.00,Wunderground v.1.15,2013-01-07 20:28:00,
2013-01-07 15:32:00,34.5,18.2,30.22,East,86,0.0,4.0,51,0.00,,,0.00,Wunderground v.1.15,2013-01-07 20:32:00,
2013-01-07 15:33:00,34.7,18.4,30.22,East,86,0.0,4.0,51,0.00,,,0.00,Wunderground v.1.15,2013-01-07 20:33:00,
2013-01-07 15:34:00,34.6,18.3,30.22,East,86,0.0,4.0,51,0.00,,,0.00,Wunderground v.1.15,2013-01-07 20:34:00,
2013-01-07 15:35:00,34.5,18.2,30.22,East,86,0.0,4.0,51,0.00,,,0.00,Wunderground v.1.15,2013-01-07 20:35:00,
2013-01-07 15:39:00,34.3,18.0,30.22,East,86,0.0,4.0,51,0.00,,,0.00,Wunderground v.1.15,2013-01-07 20:39:00,
2013-01-07 15:42:00,34.2,18.4,30.22,East,86,0.0,4.0,52,0.00,,,0.01,Wunderground v.1.15,2013-01-07 20:42:00,
2013-01-07 15:44:00,34.4,18.6,30.22,East,86,0.0,4.0,52,0.00,,,0.01,Wunderground v.1.15,2013-01-07 20:44:00,
2013-01-07 15:45:00,34.5,18.7,30.22,East,86,0.0,4.0,52,0.00,,,0.01,Wunderground v.1.15,2013-01-07 20:45:00,
2013-01-07 15:47:00,34.2,17.9,30.22,East,86,0.0,4.0,51,0.00,,,0.01,Wunderground v.1.15,2013-01-07 20:47:00,
2013-01-07 15:49:00,33.9,18.1,30.22,East,86,0.0,4.0,52,0.00,,,0.01,Wunderground v.1.15,2013-01-07 20:49:00,
2013-01-07 15:53:00,33.8,18.0,30.22,East,86,0.0,4.0,52,0.00,,,0.01,Wunderground v.1.15,2013-01-07 20:53:00,
2013-01-07 15:54:00,33.9,18.1,30.22,East,86,0.0,4.0,52,0.00,,,0.01,Wunderground v.1.15,2013-01-07 20:54:00,
2013-01-07 15:57:00,33.7,17.9,30.22,East,86,0.0,4.0,52,0.00,,,0.01,Wunderground v.1.15,2013-01-07 20:57:00,
2013-01-07 15:59:00,33.5,17.7,30.22,East,86,0.0,4.0,52,0.00,,,0.01,Wunderground v.1.15,2013-01-07 20:59:00,
2013-01-07 16:01:00,33.4,17.6,30.22,East,86,0.0,1.0,52,0.00,,,0.01,Wunderground v.1.15,2013-01-07 21:01:00,
2013-01-07 16:02:00,33.4,17.6,30.22,East,94,0.0,1.0,52,0.00,,,0.01,Wunderground v.1.15,2013-01-07 21:02:00,
2013-01-07 16:03:00,33.4,18.1,30.22,East,94,0.0,1.0,53,0.00,,,0.01,Wunderground v.1.15,2013-01-07 21:03:00,
2013-01-07 16:08:00,33.2,17.9,30.22,East,94,0.0,1.0,53,0.00,,,0.01,Wunderground v.1.15,2013-01-07 21:08:00,
2013-01-07 16:09:00,33.1,17.8,30.22,SE,140,0.0,2.0,53,0.00,,,0.01,Wunderground v.1.15,2013-01-07 21:09:00,
2013-01-07 16:12:00,33.0,17.7,30.22,South,178,1.0,6.0,53,0.00,,,0.01,Wunderground v.1.15,2013-01-07 21:12:00,
2013-01-07 16:13:00,33.0,18.1,30.22,South,171,1.0,6.0,54,0.00,,,0.01,Wunderground v.1.15,2013-01-07 21:13:00,
2013-01-07 16:15:00,32.9,18.5,30.22,WSW,241,2.0,6.0,55,0.00,,,0.01,Wunderground v.1.15,2013-01-07 21:15:00,
2013-01-07 16:16:00,32.9,18.5,30.22,WSW,241,2.0,6.0,55,0.00,,,0.01,Wunderground v.1.15,2013-01-07 21:16:00,
2013-01-07 16:18:00,32.7,18.3,30.22,WSW,240,2.0,6.0,55,0.00,,,0.01,Wunderground v.1.15,2013-01-07 21:18:00,
2013-01-07 16:22:00,32.5,18.5,30.22,SW,234,1.0,2.0,56,0.00,,,0.01,Wunderground v.1.15,2013-01-07 21:22:00,
2013-01-07 16:23:00,32.5,18.5,30.22,SW,234,1.0,2.0,56,0.00,,,0.01,Wunderground v.1.15,2013-01-07 21:23:00,
2013-01-07 16:24:00,32.4,18.4,30.22,SSW,194,1.0,2.0,56,0.00,,,0.01,Wunderground v.1.15,2013-01-07 21:24:00,
2013-01-07 16:28:00,32.3,18.3,30.22,WSW,257,1.0,4.0,56,0.00,,,0.01,Wunderground v.1.15,2013-01-07 21:28:00,
2013-01-07 16:29:00,32.3,18.3,30.22,WSW,257,1.0,4.0,56,0.00,,,0.01,Wunderground v.1.15,2013-01-07 21:29:00,
2013-01-07 16:30:00,32.3,18.8,30.23,West,259,1.0,2.0,57,0.00,,,0.01,Wunderground v.1.15,2013-01-07 21:30:00,
2013-01-07 16:31:00,32.2,18.7,30.23,WSW,248,1.0,3.0,57,0.00,,,0.01,Wunderground v.1.15,2013-01-07 21:31:00,
2013-01-07 16:35:00,31.9,18.4,30.23,WSW,256,2.0,3.0,57,0.00,,,0.01,Wunderground v.1.15,2013-01-07 21:35:00,
2013-01-07 16:36:00,31.7,18.2,30.23,WSW,257,2.0,3.0,57,0.00,,,0.01,Wunderground v.1.15,2013-01-07 21:36:00,
2013-01-07 16:37:00,31.6,18.5,30.23,WSW,254,2.0,4.0,58,0.00,,,0.01,Wunderground v.1.15,2013-01-07 21:37:00,
2013-01-07 16:41:00,31.4,18.3,30.23,WSW,252,2.0,3.0,58,0.00,,,0.01,Wunderground v.1.15,2013-01-07 21:41:00,
2013-01-07 16:42:00,31.4,18.3,30.23,WSW,252,2.0,3.0,58,0.00,,,0.01,Wunderground v.1.15,2013-01-07 21:42:00,
2013-01-07 16:46:00,31.3,18.6,30.23,WSW,257,2.0,3.0,59,0.00,,,0.01,Wunderground v.1.15,2013-01-07 21:46:00,
2013-01-07 16:47:00,31.3,18.6,30.23,WSW,248,2.0,4.0,59,0.00,,,0.01,Wunderground v.1.15,2013-01-07 21:47:00,
2013-01-07 16:49:00,31.1,18.4,30.23,WSW,252,1.0,4.0,59,0.00,,,0.01,Wunderground v.1.15,2013-01-07 21:49:00,
2013-01-07 16:52:00,31.0,18.3,30.23,WSW,252,1.0,2.0,59,0.00,,,0.01,Wunderground v.1.15,2013-01-07 21:52:00,
2013-01-07 16:53:00,30.9,18.2,30.23,WSW,252,1.0,2.0,59,0.00,,,0.01,Wunderground v.1.15,2013-01-07 21:53:00,
2013-01-07 16:58:00,30.7,18.4,30.23,WSW,238,2.0,5.0,60,0.00,,,0.01,Wunderground v.1.15,2013-01-07 21:58:00,
2013-01-07 16:59:00,30.7,18.4,30.23,WSW,238,2.0,5.0,60,0.00,,,0.01,Wunderground v.1.15,2013-01-07 21:59:00,
2013-01-07 17:00:00,30.7,18.4,30.23,WSW,238,2.0,6.0,60,0.00,,,0.01,Wunderground v.1.15,2013-01-07 22:00:00,
2013-01-07 17:02:00,30.6,18.3,30.23,SSW,196,2.0,6.0,60,0.00,,,0.01,Wunderground v.1.15,2013-01-07 22:02:00,
2013-01-07 17:04:00,30.5,18.3,30.23,SSW,209,2.0,6.0,60,0.00,,,0.01,Wunderground v.1.15,2013-01-07 22:04:00,
2013-01-07 17:07:00,30.4,18.5,30.23,SSW,199,2.0,6.0,61,0.00,,,0.01,Wunderground v.1.15,2013-01-07 22:07:00,
2013-01-07 17:09:00,30.2,18.4,30.23,WSW,238,2.0,6.0,61,0.00,,,0.01,Wunderground v.1.15,2013-01-07 22:09:00,
2013-01-07 17:10:00,30.2,18.4,30.23,SSW,203,2.0,6.0,61,0.00,,,0.01,Wunderground v.1.15,2013-01-07 22:10:00,
2013-01-07 17:14:00,30.0,18.2,30.23,SW,225,2.0,6.0,61,0.00,,,0.01,Wunderground v.1.15,2013-01-07 22:14:00,
2013-01-07 17:15:00,30.0,18.2,30.23,SW,225,2.0,6.0,61,0.00,,,0.01,Wunderground v.1.15,2013-01-07 22:15:00,
2013-01-07 17:16:00,29.9,18.1,30.23,WSW,244,2.0,6.0,61,0.00,,,0.01,Wunderground v.1.15,2013-01-07 22:16:00,
2013-01-07 17:20:00,29.8,18.4,30.23,SW,231,1.0,6.0,62,0.00,,,0.01,Wunderground v.1.15,2013-01-07 22:20:00,
2013-01-07 17:22:00,29.7,18.3,30.23,SSW,205,1.0,6.0,62,0.00,,,0.01,Wunderground v.1.15,2013-01-07 22:22:00,
2013-01-07 17:23:00,29.7,18.3,30.23,SSW,205,1.0,6.0,62,0.00,,,0.01,Wunderground v.1.15,2013-01-07 22:23:00,
2013-01-07 17:28:00,29.6,18.2,30.24,SSW,198,2.0,6.0,62,0.00,,,0.01,Wunderground v.1.15,2013-01-07 22:28:00,
2013-01-07 17:29:00,29.6,18.2,30.24,South,190,2.0,6.0,62,0.00,,,0.01,Wunderground v.1.15,2013-01-07 22:29:00,
2013-01-07 17:31:00,29.5,18.4,30.24,SSW,193,2.0,6.0,63,0.00,,,0.01,Wunderground v.1.15,2013-01-07 22:31:00,
2013-01-07 17:34:00,29.4,18.0,30.24,WSW,248,2.0,6.0,62,0.00,,,0.01,Wunderground v.1.15,2013-01-07 22:34:00,
2013-01-07 17:35:00,29.4,18.3,30.25,West,264,2.0,6.0,63,0.00,,,0.01,Wunderground v.1.15,2013-01-07 22:35:00,
2013-01-07 17:36:00,29.4,18.0,30.24,WSW,255,2.0,6.0,62,0.00,,,0.01,Wunderground v.1.15,2013-01-07 22:36:00,
2013-01-07 17:37:00,29.3,18.3,30.25,WSW,255,2.0,6.0,63,0.00,,,0.01,Wunderground v.1.15,2013-01-07 22:37:00,
2013-01-07 17:39:00,29.2,18.2,30.25,WSW,255,2.0,6.0,63,0.00,,,0.01,Wunderground v.1.15,2013-01-07 22:39:00,
2013-01-07 17:40:00,29.2,18.2,30.25,WSW,255,1.0,6.0,63,0.00,,,0.01,Wunderground v.1.15,2013-01-07 22:40:00,
2013-01-07 17:44:00,29.2,18.2,30.25,SW,228,1.0,6.0,63,0.00,,,0.01,Wunderground v.1.15,2013-01-07 22:44:00,
2013-01-07 17:48:00,29.0,18.0,30.25,SW,228,1.0,6.0,63,0.00,,,0.01,Wunderground v.1.15,2013-01-07 22:48:00,
2013-01-07 17:49:00,29.0,18.0,30.25,SW,228,1.0,6.0,63,0.00,,,0.01,Wunderground v.1.15,2013-01-07 22:49:00,
2013-01-07 17:50:00,29.0,18.0,30.25,SW,228,1.0,1.0,63,0.00,,,0.01,Wunderground v.1.15,2013-01-07 22:50:00,
2013-01-07 17:53:00,28.8,18.1,30.25,SW,228,0.0,6.0,64,0.00,,,0.01,Wunderground v.1.15,2013-01-07 22:53:00,
2013-01-07 17:55:00,28.8,18.1,30.25,SW,228,0.0,6.0,64,0.00,,,0.01,Wunderground v.1.15,2013-01-07 22:55:00,
2013-01-07 17:57:00,28.7,18.1,30.25,SW,228,0.0,6.0,64,0.00,,,0.01,Wunderground v.1.15,2013-01-07 22:57:00,
2013-01-07 17:58:00,28.8,18.1,30.25,SW,228,0.0,6.0,64,0.00,,,0.01,Wunderground v.1.15,2013-01-07 22:58:00,
2013-01-07 17:59:00,28.8,18.1,30.25,SW,228,0.0,6.0,64,0.00,,,0.01,Wunderground v.1.15,2013-01-07 22:59:00,
2013-01-07 18:00:00,28.8,18.1,30.25,SSW,210,1.0,1.0,64,0.00,,,0.01,Wunderground v.1.15,2013-01-07 23:00:00,
2013-01-07 18:03:00,28.8,17.8,30.25,SSW,204,1.0,4.0,63,0.00,,,0.01,Wunderground v.1.15,2013-01-07 23:03:00,
2013-01-07 18:05:00,28.9,17.9,30.24,SSW,204,1.0,4.0,63,0.00,,,0.01,Wunderground v.1.15,2013-01-07 23:05:00,
2013-01-07 18:08:00,28.8,17.8,30.24,South,187,2.0,4.0,63,0.00,,,0.01,Wunderground v.1.15,2013-01-07 23:08:00,
2013-01-07 18:09:00,28.7,17.7,30.24,South,187,2.0,4.0,63,0.00,,,0.01,Wunderground v.1.15,2013-01-07 23:09:00,
2013-01-07 18:10:00,28.6,17.6,30.24,South,187,1.0,1.0,63,0.00,,,0.01,Wunderground v.1.15,2013-01-07 23:10:00,
2013-01-07 18:12:00,28.6,18.0,30.24,South,187,1.0,4.0,64,0.00,,,0.01,Wunderground v.1.15,2013-01-07 23:12:00,
2013-01-07 18:14:00,28.5,17.9,30.24,South,187,1.0,4.0,64,0.00,,,0.01,Wunderground v.1.15,2013-01-07 23:14:00,
2013-01-07 18:16:00,28.5,17.9,30.24,South,187,1.0,4.0,64,0.00,,,0.01,Wunderground v.1.15,2013-01-07 23:16:00,
2013-01-07 18:17:00,28.5,18.2,30.24,South,187,1.0,4.0,65,0.00,,,0.01,Wunderground v.1.15,2013-01-07 23:17:00,
2013-01-07 18:20:00,28.5,18.2,30.24,South,187,1.0,4.0,65,0.00,,,0.01,Wunderground v.1.15,2013-01-07 23:20:00,
2013-01-07 18:24:00,28.5,18.2,30.24,South,187,2.0,4.0,65,0.00,,,0.01,Wunderground v.1.15,2013-01-07 23:24:00,
2013-01-07 18:25:00,28.5,18.2,30.24,South,187,2.0,4.0,65,0.00,,,0.01,Wunderground v.1.15,2013-01-07 23:25:00,
2013-01-07 18:28:00,28.5,18.2,30.24,South,187,2.0,4.0,65,0.00,,,0.01,Wunderground v.1.15,2013-01-07 23:28:00,
2013-01-07 18:29:00,28.5,18.2,30.24,South,187,2.0,4.0,65,0.00,,,0.01,Wunderground v.1.15,2013-01-07 23:29:00,
2013-01-07 18:30:00,28.5,18.2,30.24,SSW,194,2.0,4.0,65,0.00,,,0.01,Wunderground v.1.15,2013-01-07 23:30:00,
2013-01-07 18:33:00,28.6,18.0,30.24,SSW,210,1.0,4.0,64,0.00,,,0.01,Wunderground v.1.15,2013-01-07 23:33:00,
2013-01-07 18:34:00,28.6,18.0,30.24,SSW,210,1.0,4.0,64,0.00,,,0.01,Wunderground v.1.15,2013-01-07 23:34:00,
2013-01-07 18:35:00,28.6,18.0,30.24,South,184,2.0,4.0,64,0.00,,,0.01,Wunderground v.1.15,2013-01-07 23:35:00,
2013-01-07 18:40:00,28.6,18.0,30.24,SSW,192,3.0,4.0,64,0.00,,,0.01,Wunderground v.1.15,2013-01-07 23:40:00,
2013-01-07 18:41:00,28.6,18.0,30.24,SSW,192,3.0,4.0,64,0.00,,,0.01,Wunderground v.1.15,2013-01-07 23:41:00,
2013-01-07 18:44:00,28.6,18.0,30.24,SSW,210,3.0,4.0,64,0.00,,,0.01,Wunderground v.1.15,2013-01-07 23:44:00,
2013-01-07 18:46:00,28.6,18.0,30.24,SSW,210,3.0,4.0,64,0.00,,,0.01,Wunderground v.1.15,2013-01-07 23:46:00,
2013-01-07 18:47:00,28.6,18.0,30.24,SSW,210,2.0,4.0,64,0.00,,,0.01,Wunderground v.1.15,2013-01-07 23:47:00,
2013-01-07 18:50:00,28.6,18.0,30.24,SSW,210,1.0,4.0,64,0.00,,,0.01,Wunderground v.1.15,2013-01-07 23:50:00,
2013-01-07 18:52:00,28.7,18.1,30.24,SSW,210,1.0,4.0,64,0.00,,,0.01,Wunderground v.1.15,2013-01-07 23:52:00,
2013-01-07 18:54:00,28.7,17.7,30.24,SSW,210,1.0,4.0,63,0.00,,,0.01,Wunderground v.1.15,2013-01-07 23:54:00,
2013-01-07 18:55:00,28.7,17.7,30.24,SSW,210,1.0,4.0,63,0.00,,,0.01,Wunderground v.1.15,2013-01-07 23:55:00,
2013-01-07 18:58:00,28.7,17.7,30.24,SSW,210,1.0,4.0,63,0.00,,,0.01,Wunderground v.1.15,2013-01-07 23:58:00,
2013-01-07 19:01:00,28.8,17.8,30.24,SSW,210,2.0,6.0,63,0.00,,,0.01,Wunderground v.1.15,2013-01-08 00:01:00,
2013-01-07 19:04:00,28.7,17.7,30.24,SSW,210,1.0,6.0,63,0.00,,,0.01,Wunderground v.1.15,2013-01-08 00:04:00,
2013-01-07 19:06:00,28.7,17.7,30.24,SSW,210,1.0,6.0,63,0.00,,,0.01,Wunderground v.1.15,2013-01-08 00:06:00,
2013-01-07 19:07:00,28.7,17.7,30.24,SSW,210,1.0,6.0,63,0.00,,,0.01,Wunderground v.1.15,2013-01-08 00:07:00,
2013-01-07 19:10:00,28.6,17.6,30.24,SSW,210,0.0,6.0,63,0.00,,,0.01,Wunderground v.1.15,2013-01-08 00:10:00,
2013-01-07 19:12:00,28.5,17.5,30.24,SSW,210,0.0,6.0,63,0.00,,,0.01,Wunderground v.1.15,2013-01-08 00:12:00,
2013-01-07 19:14:00,28.3,17.7,30.25,SSW,210,0.0,6.0,64,0.00,,,0.01,Wunderground v.1.15,2013-01-08 00:14:00,
2013-01-07 19:15:00,28.3,17.7,30.25,SSW,210,0.0,6.0,64,0.00,,,0.01,Wunderground v.1.15,2013-01-08 00:15:00,
2013-01-07 19:16:00,28.2,17.6,30.25,SSW,194,0.0,6.0,64,0.00,,,0.01,Wunderground v.1.15,2013-01-08 00:16:00,
2013-01-07 19:20:00,27.6,17.4,30.25,South,179,2.0,6.0,65,0.00,,,0.01,Wunderground v.1.15,2013-01-08 00:20:00,
2013-01-07 19:22:00,27.4,17.2,30.25,South,180,3.0,6.0,65,0.00,,,0.01,Wunderground v.1.15,2013-01-08 00:22:00,
2013-01-07 19:25:00,27.3,17.4,30.25,South,180,4.0,6.0,66,0.00,,,0.01,Wunderground v.1.15,2013-01-08 00:25:00,
2013-01-07 19:28:00,27.2,17.3,30.24,South,180,4.0,6.0,66,0.00,,,0.01,Wunderground v.1.15,2013-01-08 00:28:00,
2013-01-07 19:29:00,27.2,17.3,30.24,South,180,4.0,6.0,66,0.00,,,0.01,Wunderground v.1.15,2013-01-08 00:29:00,
2013-01-07 19:33:00,27.2,17.7,30.24,South,180,3.0,6.0,67,0.00,,,0.01,Wunderground v.1.15,2013-01-08 00:33:00,
2013-01-07 19:34:00,27.2,17.7,30.24,South,180,3.0,6.0,67,0.00,,,0.01,Wunderground v.1.15,2013-01-08 00:34:00,
2013-01-07 19:38:00,27.3,17.4,30.24,South,180,2.0,6.0,66,0.00,,,0.01,Wunderground v.1.15,2013-01-08 00:38:00,
2013-01-07 19:39:00,27.4,17.5,30.24,South,185,2.0,6.0,66,0.00,,,0.01,Wunderground v.1.15,2013-01-08 00:39:00,
2013-01-07 19:44:00,27.6,17.7,30.24,South,184,1.0,6.0,66,0.00,,,0.01,Wunderground v.1.15,2013-01-08 00:44:00,
2013-01-07 19:45:00,27.6,17.7,30.24,South,184,1.0,6.0,66,0.00,,,0.01,Wunderground v.1.15,2013-01-08 00:45:00,
2013-01-07 19:47:00,27.6,17.4,30.24,South,187,1.0,6.0,65,0.00,,,0.01,Wunderground v.1.15,2013-01-08 00:47:00,
2013-01-07 19:49:00,27.6,17.7,30.24,South,187,0.0,6.0,66,0.00,,,0.01,Wunderground v.1.15,2013-01-08 00:49:00,
2013-01-07 19:50:00,27.6,17.7,30.24,South,187,0.0,6.0,66,0.00,,,0.01,Wunderground v.1.15,2013-01-08 00:50:00,
2013-01-07 19:53:00,27.5,17.6,30.24,South,187,0.0,6.0,66,0.00,,,0.01,Wunderground v.1.15,2013-01-08 00:53:00,
2013-01-07 19:55:00,27.4,17.5,30.24,South,187,0.0,6.0,66,0.00,,,0.01,Wunderground v.1.15,2013-01-08 00:55:00,
2013-01-07 19:58:00,27.3,17.4,30.24,South,187,0.0,6.0,66,0.00,,,0.01,Wunderground v.1.15,2013-01-08 00:58:00,
2013-01-07 20:00:00,27.2,17.3,30.24,South,187,0.0,3.0,66,0.00,,,0.01,Wunderground v.1.15,2013-01-08 01:00:00,
2013-01-07 20:01:00,27.2,17.3,30.24,South,187,0.0,3.0,66,0.00,,,0.01,Wunderground v.1.15,2013-01-08 01:01:00,
2013-01-07 20:04:00,27.0,17.1,30.24,South,187,0.0,3.0,66,0.00,,,0.01,Wunderground v.1.15,2013-01-08 01:04:00,
2013-01-07 20:06:00,26.9,17.0,30.24,South,187,0.0,3.0,66,0.00,,,0.01,Wunderground v.1.15,2013-01-08 01:06:00,
2013-01-07 20:07:00,26.8,17.0,30.24,South,187,0.0,3.0,66,0.00,,,0.01,Wunderground v.1.15,2013-01-08 01:07:00,
2013-01-07 20:08:00,26.7,16.9,30.24,South,187,0.0,3.0,66,0.00,,,0.01,Wunderground v.1.15,2013-01-08 01:08:00,
2013-01-07 20:11:00,26.4,16.9,30.24,South,187,0.0,3.0,67,0.00,,,0.01,Wunderground v.1.15,2013-01-08 01:11:00,
2013-01-07 20:13:00,26.3,16.8,30.24,South,187,1.0,3.0,67,0.00,,,0.01,Wunderground v.1.15,2013-01-08 01:13:00,
2013-01-07 20:16:00,25.8,16.7,30.24,South,187,1.0,3.0,68,0.00,,,0.01,Wunderground v.1.15,2013-01-08 01:16:00,
2013-01-07 20:18:00,25.6,16.8,30.24,South,187,1.0,3.0,69,0.00,,,0.01,Wunderground v.1.15,2013-01-08 01:18:00,
2013-01-07 20:20:00,25.7,16.9,30.24,South,187,1.0,1.0,69,0.00,,,0.01,Wunderground v.1.15,2013-01-08 01:20:00,
2013-01-07 20:22:00,25.8,17.0,30.24,South,187,1.0,3.0,69,0.00,,,0.01,Wunderground v.1.15,2013-01-08 01:22:00,
2013-01-07 20:24:00,25.9,17.1,30.24,South,187,0.0,3.0,69,0.00,,,0.01,Wunderground v.1.15,2013-01-08 01:24:00,
2013-01-07 20:25:00,26.0,17.2,30.24,South,187,0.0,3.0,69,0.00,,,0.01,Wunderground v.1.15,2013-01-08 01:25:00,
2013-01-07 20:28:00,26.0,17.2,30.24,South,187,0.0,3.0,69,0.00,,,0.01,Wunderground v.1.15,2013-01-08 01:28:00,
2013-01-07 20:29:00,26.1,17.3,30.23,South,187,1.0,3.0,69,0.00,,,0.01,Wunderground v.1.15,2013-01-08 01:29:00,
2013-01-07 20:31:00,26.2,17.1,30.24,South,187,1.0,3.0,68,0.00,,,0.01,Wunderground v.1.15,2013-01-08 01:31:00,
2013-01-07 20:33:00,26.2,17.4,30.24,South,187,1.0,3.0,69,0.00,,,0.01,Wunderground v.1.15,2013-01-08 01:33:00,
2013-01-07 20:36:00,26.3,17.5,30.23,SW,223,1.0,3.0,69,0.00,,,0.01,Wunderground v.1.15,2013-01-08 01:36:00,
2013-01-07 20:38:00,26.4,17.3,30.23,SW,225,2.0,3.0,68,0.00,,,0.01,Wunderground v.1.15,2013-01-08 01:38:00,
2013-01-07 20:41:00,26.5,17.4,30.23,SW,222,2.0,3.0,68,0.00,,,0.01,Wunderground v.1.15,2013-01-08 01:41:00,
2013-01-07 20:42:00,26.5,17.4,30.23,SW,222,2.0,3.0,68,0.00,,,0.01,Wunderground v.1.15,2013-01-08 01:42:00,
2013-01-07 20:45:00,26.6,17.5,30.23,SW,222,2.0,3.0,68,0.00,,,0.01,Wunderground v.1.15,2013-01-08 01:45:00,
2013-01-07 20:46:00,26.6,17.5,30.23,SW,222,2.0,3.0,68,0.00,,,0.01,Wunderground v.1.15,2013-01-08 01:46:00,
2013-01-07 20:47:00,26.6,17.5,30.23,SW,222,1.0,3.0,68,0.00,,,0.01,Wunderground v.1.15,2013-01-08 01:47:00,
2013-01-07 20:51:00,26.4,17.3,30.23,SW,222,1.0,3.0,68,0.00,,,0.01,Wunderground v.1.15,2013-01-08 01:51:00,
2013-01-07 20:53:00,26.2,17.1,30.23,SW,221,1.0,3.0,68,0.00,,,0.01,Wunderground v.1.15,2013-01-08 01:53:00,
2013-01-07 20:54:00,26.1,17.3,30.23,SW,221,1.0,3.0,69,0.00,,,0.01,Wunderground v.1.15,2013-01-08 01:54:00,
2013-01-07 20:55:00,26.1,17.3,30.23,SW,221,1.0,3.0,69,0.00,,,0.01,Wunderground v.1.15,2013-01-08 01:55:00,
2013-01-07 20:57:00,25.9,17.1,30.23,SW,221,0.0,3.0,69,0.00,,,0.01,Wunderground v.1.15,2013-01-08 01:57:00,
2013-01-07 21:01:00,25.7,17.3,30.23,SW,221,0.0,4.0,70,0.00,,,0.01,Wunderground v.1.15,2013-01-08 02:01:00,
2013-01-07 21:02:00,25.7,17.3,30.23,SW,221,0.0,4.0,70,0.00,,,0.01,Wunderground v.1.15,2013-01-08 02:02:00,
2013-01-07 21:05:00,25.5,17.1,30.23,SW,221,0.0,4.0,70,0.00,,,0.01,Wunderground v.1.15,2013-01-08 02:05:00,
2013-01-07 21:08:00,25.2,17.1,30.23,SW,221,0.0,4.0,71,0.00,,,0.01,Wunderground v.1.15,2013-01-08 02:08:00,
2013-01-07 21:10:00,25.0,16.9,30.23,SW,221,0.0,4.0,71,0.00,,,0.01,Wunderground v.1.15,2013-01-08 02:10:00,
2013-01-07 21:12:00,24.9,17.1,30.23,SW,221,0.0,4.0,72,0.00,,,0.01,Wunderground v.1.15,2013-01-08 02:12:00,
2013-01-07 21:13:00,25.0,17.2,30.23,SW,221,0.0,4.0,72,0.00,,,0.01,Wunderground v.1.15,2013-01-08 02:13:00,
2013-01-07 21:15:00,25.1,17.3,30.23,SW,221,0.0,4.0,72,0.00,,,0.01,Wunderground v.1.15,2013-01-08 02:15:00,
2013-01-07 21:18:00,25.2,17.4,30.23,SSW,207,1.0,4.0,72,0.00,,,0.01,Wunderground v.1.15,2013-01-08 02:18:00,
2013-01-07 21:19:00,25.2,17.4,30.23,SSW,206,1.0,4.0,72,0.00,,,0.01,Wunderground v.1.15,2013-01-08 02:19:00,
2013-01-07 21:21:00,25.1,17.0,30.23,South,182,1.0,4.0,71,0.00,,,0.01,Wunderground v.1.15,2013-01-08 02:21:00,
2013-01-07 21:23:00,25.0,17.2,30.23,South,184,2.0,4.0,72,0.00,,,0.01,Wunderground v.1.15,2013-01-08 02:23:00,
2013-01-07 21:24:00,24.9,17.1,30.23,South,184,2.0,4.0,72,0.00,,,0.01,Wunderground v.1.15,2013-01-08 02:24:00,
2013-01-07 21:28:00,24.8,17.1,30.23,South,184,1.0,4.0,72,0.00,,,0.01,Wunderground v.1.15,2013-01-08 02:28:00,
2013-01-07 21:29:00,24.8,17.1,30.23,South,184,1.0,4.0,72,0.00,,,0.01,Wunderground v.1.15,2013-01-08 02:29:00,
2013-01-07 21:31:00,24.7,17.0,30.23,South,184,1.0,4.0,72,0.00,,,0.01,Wunderground v.1.15,2013-01-08 02:31:00,
2013-01-07 21:33:00,24.6,17.2,30.24,South,184,0.0,4.0,73,0.00,,,0.01,Wunderground v.1.15,2013-01-08 02:33:00,
2013-01-07 21:34:00,24.5,17.1,30.24,South,184,0.0,4.0,73,0.00,,,0.01,Wunderground v.1.15,2013-01-08 02:34:00,
2013-01-07 21:38:00,24.5,17.1,30.24,South,184,0.0,4.0,73,0.00,,,0.01,Wunderground v.1.15,2013-01-08 02:38:00,
2013-01-07 21:42:00,24.4,17.0,30.24,South,184,0.0,4.0,73,0.00,,,0.01,Wunderground v.1.15,2013-01-08 02:42:00,
2013-01-07 21:43:00,24.4,17.0,30.24,South,184,0.0,4.0,73,0.00,,,0.01,Wunderground v.1.15,2013-01-08 02:43:00,
2013-01-07 21:44:00,24.4,17.0,30.24,South,184,0.0,4.0,73,0.00,,,0.01,Wunderground v.1.15,2013-01-08 02:44:00,
2013-01-07 21:45:00,24.5,17.4,30.24,South,184,0.0,4.0,74,0.00,,,0.01,Wunderground v.1.15,2013-01-08 02:45:00,
2013-01-07 21:48:00,24.5,17.1,30.23,South,184,0.0,4.0,73,0.00,,,0.01,Wunderground v.1.15,2013-01-08 02:48:00,
2013-01-07 21:49:00,24.5,17.1,30.23,South,184,0.0,4.0,73,0.00,,,0.01,Wunderground v.1.15,2013-01-08 02:49:00,
2013-01-07 21:50:00,24.5,17.4,30.23,South,184,0.0,4.0,74,0.00,,,0.01,Wunderground v.1.15,2013-01-08 02:50:00,
2013-01-07 21:52:00,24.5,17.4,30.23,South,184,0.0,4.0,74,0.00,,,0.01,Wunderground v.1.15,2013-01-08 02:52:00,
2013-01-07 21:56:00,24.2,17.1,30.23,South,184,0.0,4.0,74,0.00,,,0.01,Wunderground v.1.15,2013-01-08 02:56:00,
2013-01-07 21:57:00,24.2,17.1,30.23,South,184,0.0,4.0,74,0.00,,,0.01,Wunderground v.1.15,2013-01-08 02:57:00,
2013-01-07 21:58:00,24.1,17.0,30.23,South,184,0.0,4.0,74,0.00,,,0.01,Wunderground v.1.15,2013-01-08 02:58:00,
2013-01-07 22:01:00,23.7,16.9,30.23,South,184,0.0,3.0,75,0.00,,,0.01,Wunderground v.1.15,2013-01-08 03:01:00,
2013-01-07 22:03:00,23.6,16.8,30.23,South,184,0.0,3.0,75,0.00,,,0.01,Wunderground v.1.15,2013-01-08 03:03:00,
2013-01-07 22:08:00,23.8,17.3,30.23,South,184,0.0,3.0,76,0.00,,,0.01,Wunderground v.1.15,2013-01-08 03:08:00,
2013-01-07 22:10:00,23.8,17.0,30.23,South,184,0.0,3.0,75,0.00,,,0.01,Wunderground v.1.15,2013-01-08 03:10:00,
2013-01-07 22:11:00,23.8,17.3,30.23,South,184,0.0,3.0,76,0.00,,,0.01,Wunderground v.1.15,2013-01-08 03:11:00,
2013-01-07 22:16:00,23.3,16.5,30.23,South,184,0.0,3.0,75,0.00,,,0.01,Wunderground v.1.15,2013-01-08 03:16:00,
2013-01-07 22:19:00,23.1,16.7,30.23,South,184,0.0,3.0,76,0.00,,,0.01,Wunderground v.1.15,2013-01-08 03:19:00,
2013-01-07 22:20:00,23.1,16.7,30.23,South,184,0.0,3.0,76,0.00,,,0.01,Wunderground v.1.15,2013-01-08 03:20:00,
2013-01-07 22:21:00,23.1,17.0,30.23,South,184,0.0,3.0,77,0.00,,,0.01,Wunderground v.1.15,2013-01-08 03:21:00,
2013-01-07 22:24:00,23.3,17.2,30.23,South,184,0.0,3.0,77,0.00,,,0.01,Wunderground v.1.15,2013-01-08 03:24:00,
2013-01-07 22:26:00,23.2,17.1,30.23,WSW,258,0.0,3.0,77,0.00,,,0.01,Wunderground v.1.15,2013-01-08 03:26:00,
2013-01-07 22:27:00,23.1,17.0,30.23,West,266,0.0,3.0,77,0.00,,,0.01,Wunderground v.1.15,2013-01-08 03:27:00,
2013-01-07 22:28:00,23.1,17.0,30.23,West,264,1.0,3.0,77,0.00,,,0.01,Wunderground v.1.15,2013-01-08 03:28:00,
2013-01-07 22:32:00,22.8,16.7,30.23,West,264,2.0,3.0,77,0.00,,,0.01,Wunderground v.1.15,2013-01-08 03:32:00,
2013-01-07 22:33:00,22.7,16.6,30.23,West,264,2.0,3.0,77,0.00,,,0.01,Wunderground v.1.15,2013-01-08 03:33:00,
2013-01-07 22:34:00,22.6,16.5,30.23,West,264,2.0,3.0,77,0.00,,,0.01,Wunderground v.1.15,2013-01-08 03:34:00,
2013-01-07 22:38:00,22.4,16.6,30.23,West,264,2.0,3.0,78,0.00,,,0.01,Wunderground v.1.15,2013-01-08 03:38:00,
2013-01-07 22:39:00,22.4,16.6,30.23,West,264,2.0,3.0,78,0.00,,,0.01,Wunderground v.1.15,2013-01-08 03:39:00,
2013-01-07 22:40:00,22.3,16.5,30.23,West,264,1.0,3.0,78,0.00,,,0.01,Wunderground v.1.15,2013-01-08 03:40:00,
2013-01-07 22:42:00,22.2,16.4,30.23,West,264,1.0,3.0,78,0.00,,,0.01,Wunderground v.1.15,2013-01-08 03:42:00,
2013-01-07 22:45:00,22.1,16.3,30.23,West,264,1.0,3.0,78,0.00,,,0.01,Wunderground v.1.15,2013-01-08 03:45:00,
2013-01-07 22:46:00,22.1,16.3,30.23,West,263,1.0,3.0,78,0.00,,,0.01,Wunderground v.1.15,2013-01-08 03:46:00,
2013-01-07 22:49:00,22.4,16.9,30.23,West,261,1.0,3.0,79,0.00,,,0.01,Wunderground v.1.15,2013-01-08 03:49:00,
2013-01-07 22:50:00,22.5,17.0,30.23,West,260,2.0,3.0,79,0.00,,,0.01,Wunderground v.1.15,2013-01-08 03:50:00,
2013-01-07 22:51:00,22.6,17.1,30.23,WSW,240,2.0,3.0,79,0.00,,,0.01,Wunderground v.1.15,2013-01-08 03:51:00,
2013-01-07 22:55:00,22.7,16.9,30.23,WSW,258,3.0,4.0,78,0.00,,,0.01,Wunderground v.1.15,2013-01-08 03:55:00,
2013-01-07 22:56:00,22.8,17.0,30.23,West,259,3.0,4.0,78,0.00,,,0.01,Wunderground v.1.15,2013-01-08 03:56:00,
2013-01-07 22:57:00,22.7,16.9,30.23,West,259,3.0,4.0,78,0.00,,,0.01,Wunderground v.1.15,2013-01-08 03:57:00,
2013-01-07 23:01:00,22.6,16.8,30.23,West,259,3.0,3.0,78,0.00,,,0.01,Wunderground v.1.15,2013-01-08 04:01:00,
2013-01-07 23:03:00,22.4,16.6,30.23,West,259,3.0,3.0,78,0.00,,,0.01,Wunderground v.1.15,2013-01-08 04:03:00,
2013-01-07 23:04:00,22.3,16.5,30.23,West,259,3.0,3.0,78,0.00,,,0.01,Wunderground v.1.15,2013-01-08 04:04:00,
2013-01-07 23:06:00,22.3,16.8,30.23,West,259,3.0,4.0,79,0.00,,,0.01,Wunderground v.1.15,2013-01-08 04:06:00,
2013-01-07 23:08:00,22.4,16.9,30.23,West,259,2.0,4.0,79,0.00,,,0.01,Wunderground v.1.15,2013-01-08 04:08:00,
2013-01-07 23:10:00,22.5,17.0,30.23,West,259,2.0,3.0,79,0.00,,,0.01,Wunderground v.1.15,2013-01-08 04:10:00,
2013-01-07 23:14:00,22.5,17.0,30.23,West,259,2.0,3.0,79,0.00,,,0.01,Wunderground v.1.15,2013-01-08 04:14:00,
2013-01-07 23:15:00,22.5,17.0,30.23,West,259,2.0,3.0,79,0.00,,,0.01,Wunderground v.1.15,2013-01-08 04:15:00,
2013-01-07 23:17:00,22.1,16.3,30.22,West,259,1.0,3.0,78,0.00,,,0.01,Wunderground v.1.15,2013-01-08 04:17:00,
2013-01-07 23:18:00,22.0,16.5,30.23,West,259,1.0,3.0,79,0.00,,,0.01,Wunderground v.1.15,2013-01-08 04:18:00,
2013-01-07 23:19:00,21.8,16.3,30.23,West,259,1.0,3.0,79,0.00,,,0.01,Wunderground v.1.15,2013-01-08 04:19:00,
2013-01-07 23:21:00,21.7,16.2,30.22,West,259,1.0,3.0,79,0.00,,,0.01,Wunderground v.1.15,2013-01-08 04:21:00,
2013-01-07 23:24:00,21.6,16.4,30.23,West,259,0.0,3.0,80,0.00,,,0.01,Wunderground v.1.15,2013-01-08 04:24:00,
2013-01-07 23:25:00,21.6,16.4,30.22,WSW,257,0.0,3.0,80,0.00,,,0.01,Wunderground v.1.15,2013-01-08 04:25:00,
2013-01-07 23:26:00,21.5,16.3,30.22,WSW,257,0.0,3.0,80,0.00,,,0.01,Wunderground v.1.15,2013-01-08 04:26:00,
2013-01-07 23:27:00,21.4,16.2,30.22,WSW,257,0.0,3.0,80,0.00,,,0.01,Wunderground v.1.15,2013-01-08 04:27:00,
2013-01-07 23:31:00,21.2,16.3,30.22,WSW,257,0.0,3.0,81,0.00,,,0.01,Wunderground v.1.15,2013-01-08 04:31:00,
2013-01-07 23:32:00,21.2,16.3,30.22,WSW,242,0.0,3.0,81,0.00,,,0.01,Wunderground v.1.15,2013-01-08 04:32:00,
2013-01-07 23:33:00,21.3,16.4,30.22,WSW,242,1.0,3.0,81,0.00,,,0.01,Wunderground v.1.15,2013-01-08 04:33:00,
2013-01-07 23:38:00,21.5,16.6,30.22,WSW,242,1.0,3.0,81,0.00,,,0.01,Wunderground v.1.15,2013-01-08 04:38:00,
2013-01-07 23:39:00,21.3,16.4,30.22,WSW,242,1.0,3.0,81,0.00,,,0.01,Wunderground v.1.15,2013-01-08 04:39:00,
2013-01-07 23:40:00,21.1,16.2,30.22,WSW,242,0.0,3.0,81,0.00,,,0.01,Wunderground v.1.15,2013-01-08 04:40:00,
2013-01-07 23:44:00,21.0,16.4,30.22,WSW,242,1.0,4.0,82,0.00,,,0.01,Wunderground v.1.15,2013-01-08 04:44:00,
2013-01-07 23:46:00,21.1,16.5,30.22,WSW,242,1.0,4.0,82,0.00,,,0.01,Wunderground v.1.15,2013-01-08 04:46:00,
2013-01-07 23:47:00,21.1,16.5,30.22,WSW,242,2.0,4.0,82,0.00,,,0.01,Wunderground v.1.15,2013-01-08 04:47:00,
2013-01-07 23:48:00,21.1,16.5,30.22,WSW,239,2.0,4.0,82,0.00,,,0.01,Wunderground v.1.15,2013-01-08 04:48:00,
2013-01-07 23:51:00,21.3,16.7,30.22,WSW,248,2.0,3.0,82,0.00,,,0.01,Wunderground v.1.15,2013-01-08 04:51:00,
2013-01-07 23:52:00,21.3,16.7,30.22,WSW,248,2.0,3.0,82,0.00,,,0.01,Wunderground v.1.15,2013-01-08 04:52:00,
2013-01-07 23:55:00,21.2,16.6,30.22,WSW,248,1.0,3.0,82,0.00,,,0.01,Wunderground v.1.15,2013-01-08 04:55:00,
2013-01-07 23:56:00,21.2,16.6,30.21,WSW,248,1.0,3.0,82,0.00,,,0.01,Wunderground v.1.15,2013-01-08 04:56:00,
2013-01-07 23:57:00,21.2,16.6,30.21,WSW,248,1.0,3.0,82,0.00,,,0.01,Wunderground v.1.15,2013-01-08 04:57:00,